<?xml version="1.0" encoding="UTF-8" standalone="no" ?>
<gpx xmlns="http://www.topografix.com/GPX/1/1" xmlns:xsi="http://www.w3.org/2001/XMLSchema-instance" xsi:schemaLocation="http://www.topografix.com/GPX/1/1 http://www.topografix.com/GPX/1/1/gpx.xsd" version="1.1" creator="VisuGPX - https://www.visugpx.com">
  <metadata>
    <name>Déconfinement.</name>
    <desc><![CDATA[Reprise progressive de l'activité physique après confinement. Parcours au bord de l'Adour.

]]></desc>
  </metadata>
  <trk>
    <name><![CDATA[18 mai 2020 à 12:55:06]]></name>
    <cmt><![CDATA[18 mai 2020 à 12:55:06]]></cmt>
    <trkseg>
      <trkpt lat="43.23404" lon="0.08171">
        <ele>313</ele>
        <time>2020-05-18T10:55:07Z</time>
      </trkpt>
      <trkpt lat="43.23401" lon="0.08183">
        <ele>312</ele>
        <time>2020-05-18T10:55:22Z</time>
      </trkpt>
      <trkpt lat="43.23401" lon="0.08192">
        <ele>312</ele>
        <time>2020-05-18T10:55:31Z</time>
      </trkpt>
      <trkpt lat="43.23407" lon="0.08199">
        <ele>312</ele>
        <time>2020-05-18T10:55:44Z</time>
      </trkpt>
      <trkpt lat="43.23413" lon="0.08212">
        <ele>312</ele>
        <time>2020-05-18T10:56:02Z</time>
      </trkpt>
      <trkpt lat="43.23416" lon="0.08229">
        <ele>312</ele>
        <time>2020-05-18T10:56:09Z</time>
      </trkpt>
      <trkpt lat="43.23425" lon="0.08255">
        <ele>312</ele>
        <time>2020-05-18T10:56:25Z</time>
      </trkpt>
      <trkpt lat="43.23427" lon="0.08265">
        <ele>312</ele>
        <time>2020-05-18T10:56:29Z</time>
      </trkpt>
      <trkpt lat="43.23437" lon="0.08276">
        <ele>312</ele>
        <time>2020-05-18T10:56:44Z</time>
      </trkpt>
      <trkpt lat="43.23442" lon="0.08284">
        <ele>312</ele>
        <time>2020-05-18T10:56:50Z</time>
      </trkpt>
      <trkpt lat="43.23447" lon="0.08304">
        <ele>312</ele>
        <time>2020-05-18T10:56:58Z</time>
      </trkpt>
      <trkpt lat="43.23447" lon="0.08314">
        <ele>312</ele>
        <time>2020-05-18T10:57:02Z</time>
      </trkpt>
      <trkpt lat="43.23448" lon="0.08338">
        <ele>312</ele>
        <time>2020-05-18T10:57:09Z</time>
      </trkpt>
      <trkpt lat="43.23447" lon="0.08347">
        <ele>312</ele>
        <time>2020-05-18T10:57:12Z</time>
      </trkpt>
      <trkpt lat="43.23444" lon="0.08354">
        <ele>312</ele>
        <time>2020-05-18T10:57:17Z</time>
      </trkpt>
      <trkpt lat="43.23432" lon="0.0837">
        <ele>312</ele>
        <time>2020-05-18T10:57:28Z</time>
      </trkpt>
      <trkpt lat="43.2343" lon="0.08377">
        <ele>311</ele>
        <time>2020-05-18T10:57:33Z</time>
      </trkpt>
      <trkpt lat="43.23433" lon="0.08384">
        <ele>312</ele>
        <time>2020-05-18T10:57:39Z</time>
      </trkpt>
      <trkpt lat="43.23438" lon="0.08391">
        <ele>312</ele>
        <time>2020-05-18T10:57:44Z</time>
      </trkpt>
      <trkpt lat="43.2344" lon="0.08398">
        <ele>311</ele>
        <time>2020-05-18T10:57:50Z</time>
      </trkpt>
      <trkpt lat="43.23439" lon="0.08406">
        <ele>311</ele>
        <time>2020-05-18T10:57:56Z</time>
      </trkpt>
      <trkpt lat="43.23442" lon="0.08412">
        <ele>311</ele>
        <time>2020-05-18T10:58:00Z</time>
      </trkpt>
      <trkpt lat="43.23447" lon="0.08416">
        <ele>311</ele>
        <time>2020-05-18T10:58:14Z</time>
      </trkpt>
      <trkpt lat="43.23455" lon="0.08429">
        <ele>311</ele>
        <time>2020-05-18T10:58:30Z</time>
      </trkpt>
      <trkpt lat="43.2346" lon="0.08431">
        <ele>311</ele>
        <time>2020-05-18T10:58:36Z</time>
      </trkpt>
      <trkpt lat="43.23465" lon="0.08434">
        <ele>311</ele>
        <time>2020-05-18T10:58:41Z</time>
      </trkpt>
      <trkpt lat="43.2348" lon="0.08453">
        <ele>311</ele>
        <time>2020-05-18T10:58:52Z</time>
      </trkpt>
      <trkpt lat="43.23484" lon="0.0846">
        <ele>311</ele>
        <time>2020-05-18T10:58:57Z</time>
      </trkpt>
      <trkpt lat="43.2349" lon="0.08461">
        <ele>311</ele>
        <time>2020-05-18T10:59:03Z</time>
      </trkpt>
      <trkpt lat="43.23495" lon="0.08465">
        <ele>311</ele>
        <time>2020-05-18T10:59:07Z</time>
      </trkpt>
      <trkpt lat="43.23499" lon="0.08469">
        <ele>311</ele>
        <time>2020-05-18T10:59:11Z</time>
      </trkpt>
      <trkpt lat="43.23503" lon="0.08474">
        <ele>311</ele>
        <time>2020-05-18T10:59:15Z</time>
      </trkpt>
      <trkpt lat="43.23506" lon="0.08481">
        <ele>311</ele>
        <time>2020-05-18T10:59:19Z</time>
      </trkpt>
      <trkpt lat="43.23511" lon="0.08485">
        <ele>311</ele>
        <time>2020-05-18T10:59:23Z</time>
      </trkpt>
      <trkpt lat="43.23516" lon="0.08543">
        <ele>311</ele>
        <time>2020-05-18T10:59:53Z</time>
      </trkpt>
      <trkpt lat="43.23519" lon="0.08551">
        <ele>311</ele>
        <time>2020-05-18T10:59:57Z</time>
      </trkpt>
      <trkpt lat="43.23525" lon="0.08557">
        <ele>311</ele>
        <time>2020-05-18T11:00:01Z</time>
      </trkpt>
      <trkpt lat="43.23536" lon="0.08554">
        <ele>310</ele>
        <time>2020-05-18T11:00:05Z</time>
      </trkpt>
      <trkpt lat="43.2354" lon="0.08557">
        <ele>310</ele>
        <time>2020-05-18T11:00:08Z</time>
      </trkpt>
      <trkpt lat="43.23543" lon="0.08563">
        <ele>311</ele>
        <time>2020-05-18T11:00:12Z</time>
      </trkpt>
      <trkpt lat="43.23547" lon="0.08568">
        <ele>310</ele>
        <time>2020-05-18T11:00:17Z</time>
      </trkpt>
      <trkpt lat="43.23555" lon="0.08569">
        <ele>310</ele>
        <time>2020-05-18T11:00:22Z</time>
      </trkpt>
      <trkpt lat="43.23559" lon="0.08569">
        <ele>310</ele>
        <time>2020-05-18T11:00:24Z</time>
      </trkpt>
      <trkpt lat="43.23567" lon="0.0858">
        <ele>310</ele>
        <time>2020-05-18T11:00:33Z</time>
      </trkpt>
      <trkpt lat="43.23577" lon="0.08574">
        <ele>308</ele>
        <time>2020-05-18T11:00:51Z</time>
      </trkpt>
      <trkpt lat="43.23582" lon="0.08571">
        <ele>308</ele>
        <time>2020-05-18T11:00:56Z</time>
      </trkpt>
      <trkpt lat="43.23586" lon="0.08565">
        <ele>308</ele>
        <time>2020-05-18T11:01:01Z</time>
      </trkpt>
      <trkpt lat="43.23596" lon="0.08554">
        <ele>308</ele>
        <time>2020-05-18T11:01:13Z</time>
      </trkpt>
      <trkpt lat="43.23603" lon="0.08542">
        <ele>308</ele>
        <time>2020-05-18T11:01:21Z</time>
      </trkpt>
      <trkpt lat="43.23615" lon="0.08542">
        <ele>308</ele>
        <time>2020-05-18T11:02:44Z</time>
      </trkpt>
      <trkpt lat="43.23614" lon="0.08533">
        <ele>307</ele>
        <time>2020-05-18T11:03:46Z</time>
      </trkpt>
      <trkpt lat="43.23644" lon="0.08501">
        <ele>308</ele>
        <time>2020-05-18T11:04:19Z</time>
      </trkpt>
      <trkpt lat="43.23655" lon="0.08484">
        <ele>308</ele>
        <time>2020-05-18T11:04:32Z</time>
      </trkpt>
      <trkpt lat="43.23662" lon="0.08482">
        <ele>307</ele>
        <time>2020-05-18T11:04:42Z</time>
      </trkpt>
      <trkpt lat="43.23659" lon="0.08484">
        <ele>308</ele>
        <time>2020-05-18T11:05:46Z</time>
      </trkpt>
      <trkpt lat="43.23668" lon="0.08479">
        <ele>308</ele>
        <time>2020-05-18T11:06:51Z</time>
      </trkpt>
      <trkpt lat="43.23672" lon="0.0847">
        <ele>308</ele>
        <time>2020-05-18T11:06:56Z</time>
      </trkpt>
      <trkpt lat="43.23678" lon="0.08463">
        <ele>308</ele>
        <time>2020-05-18T11:07:01Z</time>
      </trkpt>
      <trkpt lat="43.23685" lon="0.0846">
        <ele>308</ele>
        <time>2020-05-18T11:07:06Z</time>
      </trkpt>
      <trkpt lat="43.23709" lon="0.08441">
        <ele>308</ele>
        <time>2020-05-18T11:07:29Z</time>
      </trkpt>
      <trkpt lat="43.23713" lon="0.08433">
        <ele>308</ele>
        <time>2020-05-18T11:07:43Z</time>
      </trkpt>
      <trkpt lat="43.23717" lon="0.08438">
        <ele>308</ele>
        <time>2020-05-18T11:09:01Z</time>
      </trkpt>
      <trkpt lat="43.23724" lon="0.08431">
        <ele>308</ele>
        <time>2020-05-18T11:10:35Z</time>
      </trkpt>
      <trkpt lat="43.2373" lon="0.08427">
        <ele>308</ele>
        <time>2020-05-18T11:10:41Z</time>
      </trkpt>
      <trkpt lat="43.23736" lon="0.0842">
        <ele>307</ele>
        <time>2020-05-18T11:10:46Z</time>
      </trkpt>
      <trkpt lat="43.2376" lon="0.08407">
        <ele>308</ele>
        <time>2020-05-18T11:11:03Z</time>
      </trkpt>
      <trkpt lat="43.23776" lon="0.08391">
        <ele>307</ele>
        <time>2020-05-18T11:11:16Z</time>
      </trkpt>
      <trkpt lat="43.23782" lon="0.0839">
        <ele>307</ele>
        <time>2020-05-18T11:11:20Z</time>
      </trkpt>
      <trkpt lat="43.23792" lon="0.08379">
        <ele>307</ele>
        <time>2020-05-18T11:11:29Z</time>
      </trkpt>
      <trkpt lat="43.23797" lon="0.08377">
        <ele>308</ele>
        <time>2020-05-18T11:11:33Z</time>
      </trkpt>
      <trkpt lat="43.23806" lon="0.08369">
        <ele>307</ele>
        <time>2020-05-18T11:11:40Z</time>
      </trkpt>
      <trkpt lat="43.23809" lon="0.08364">
        <ele>307</ele>
        <time>2020-05-18T11:11:43Z</time>
      </trkpt>
      <trkpt lat="43.2381" lon="0.08358">
        <ele>307</ele>
        <time>2020-05-18T11:11:46Z</time>
      </trkpt>
      <trkpt lat="43.23813" lon="0.08352">
        <ele>307</ele>
        <time>2020-05-18T11:11:49Z</time>
      </trkpt>
      <trkpt lat="43.23815" lon="0.08346">
        <ele>307</ele>
        <time>2020-05-18T11:11:52Z</time>
      </trkpt>
      <trkpt lat="43.23828" lon="0.08343">
        <ele>307</ele>
        <time>2020-05-18T11:12:02Z</time>
      </trkpt>
      <trkpt lat="43.23833" lon="0.08344">
        <ele>307</ele>
        <time>2020-05-18T11:12:05Z</time>
      </trkpt>
      <trkpt lat="43.23843" lon="0.0834">
        <ele>307</ele>
        <time>2020-05-18T11:12:12Z</time>
      </trkpt>
      <trkpt lat="43.23852" lon="0.0834">
        <ele>307</ele>
        <time>2020-05-18T11:12:17Z</time>
      </trkpt>
      <trkpt lat="43.23895" lon="0.08323">
        <ele>306</ele>
        <time>2020-05-18T11:12:49Z</time>
      </trkpt>
      <trkpt lat="43.23932" lon="0.08303">
        <ele>306</ele>
        <time>2020-05-18T11:13:16Z</time>
      </trkpt>
      <trkpt lat="43.23936" lon="0.08299">
        <ele>306</ele>
        <time>2020-05-18T11:13:20Z</time>
      </trkpt>
      <trkpt lat="43.23948" lon="0.08292">
        <ele>306</ele>
        <time>2020-05-18T11:13:36Z</time>
      </trkpt>
      <trkpt lat="43.23959" lon="0.08284">
        <ele>306</ele>
        <time>2020-05-18T11:13:43Z</time>
      </trkpt>
      <trkpt lat="43.23965" lon="0.08281">
        <ele>307</ele>
        <time>2020-05-18T11:13:50Z</time>
      </trkpt>
      <trkpt lat="43.23968" lon="0.0827">
        <ele>309</ele>
        <time>2020-05-18T11:14:03Z</time>
      </trkpt>
      <trkpt lat="43.23971" lon="0.08276">
        <ele>309</ele>
        <time>2020-05-18T11:14:08Z</time>
      </trkpt>
      <trkpt lat="43.2397" lon="0.08281">
        <ele>309</ele>
        <time>2020-05-18T11:14:11Z</time>
      </trkpt>
      <trkpt lat="43.23973" lon="0.08287">
        <ele>309</ele>
        <time>2020-05-18T11:14:15Z</time>
      </trkpt>
      <trkpt lat="43.23969" lon="0.08301">
        <ele>309</ele>
        <time>2020-05-18T11:14:23Z</time>
      </trkpt>
      <trkpt lat="43.2397" lon="0.08307">
        <ele>309</ele>
        <time>2020-05-18T11:14:26Z</time>
      </trkpt>
      <trkpt lat="43.23963" lon="0.08323">
        <ele>309</ele>
        <time>2020-05-18T11:14:38Z</time>
      </trkpt>
      <trkpt lat="43.23961" lon="0.08353">
        <ele>309</ele>
        <time>2020-05-18T11:14:55Z</time>
      </trkpt>
      <trkpt lat="43.23964" lon="0.08359">
        <ele>308</ele>
        <time>2020-05-18T11:14:59Z</time>
      </trkpt>
      <trkpt lat="43.23968" lon="0.08365">
        <ele>308</ele>
        <time>2020-05-18T11:15:03Z</time>
      </trkpt>
      <trkpt lat="43.23972" lon="0.08367">
        <ele>308</ele>
        <time>2020-05-18T11:15:06Z</time>
      </trkpt>
      <trkpt lat="43.23974" lon="0.08361">
        <ele>307</ele>
        <time>2020-05-18T11:15:10Z</time>
      </trkpt>
      <trkpt lat="43.23974" lon="0.08354">
        <ele>307</ele>
        <time>2020-05-18T11:15:14Z</time>
      </trkpt>
      <trkpt lat="43.23976" lon="0.08349">
        <ele>306</ele>
        <time>2020-05-18T11:15:18Z</time>
      </trkpt>
      <trkpt lat="43.2398" lon="0.08339">
        <ele>306</ele>
        <time>2020-05-18T11:15:26Z</time>
      </trkpt>
      <trkpt lat="43.23984" lon="0.08333">
        <ele>306</ele>
        <time>2020-05-18T11:15:30Z</time>
      </trkpt>
      <trkpt lat="43.23993" lon="0.08331">
        <ele>306</ele>
        <time>2020-05-18T11:15:37Z</time>
      </trkpt>
      <trkpt lat="43.23999" lon="0.0833">
        <ele>306</ele>
        <time>2020-05-18T11:15:41Z</time>
      </trkpt>
      <trkpt lat="43.24004" lon="0.08329">
        <ele>306</ele>
        <time>2020-05-18T11:15:44Z</time>
      </trkpt>
      <trkpt lat="43.24013" lon="0.08327">
        <ele>306</ele>
        <time>2020-05-18T11:15:50Z</time>
      </trkpt>
      <trkpt lat="43.24021" lon="0.08319">
        <ele>305</ele>
        <time>2020-05-18T11:15:58Z</time>
      </trkpt>
      <trkpt lat="43.2403" lon="0.08313">
        <ele>305</ele>
        <time>2020-05-18T11:16:05Z</time>
      </trkpt>
      <trkpt lat="43.24033" lon="0.08308">
        <ele>305</ele>
        <time>2020-05-18T11:16:08Z</time>
      </trkpt>
      <trkpt lat="43.24041" lon="0.083">
        <ele>305</ele>
        <time>2020-05-18T11:16:15Z</time>
      </trkpt>
      <trkpt lat="43.24065" lon="0.08285">
        <ele>305</ele>
        <time>2020-05-18T11:16:35Z</time>
      </trkpt>
      <trkpt lat="43.24074" lon="0.08281">
        <ele>304</ele>
        <time>2020-05-18T11:16:43Z</time>
      </trkpt>
      <trkpt lat="43.24101" lon="0.08262">
        <ele>303</ele>
        <time>2020-05-18T11:17:02Z</time>
      </trkpt>
      <trkpt lat="43.24106" lon="0.08262">
        <ele>303</ele>
        <time>2020-05-18T11:17:06Z</time>
      </trkpt>
      <trkpt lat="43.24117" lon="0.08264">
        <ele>303</ele>
        <time>2020-05-18T11:17:13Z</time>
      </trkpt>
      <trkpt lat="43.24122" lon="0.08266">
        <ele>303</ele>
        <time>2020-05-18T11:17:17Z</time>
      </trkpt>
      <trkpt lat="43.24131" lon="0.0826">
        <ele>303</ele>
        <time>2020-05-18T11:17:25Z</time>
      </trkpt>
      <trkpt lat="43.24136" lon="0.08255">
        <ele>303</ele>
        <time>2020-05-18T11:17:30Z</time>
      </trkpt>
      <trkpt lat="43.24146" lon="0.08253">
        <ele>303</ele>
        <time>2020-05-18T11:17:37Z</time>
      </trkpt>
      <trkpt lat="43.24157" lon="0.08249">
        <ele>302</ele>
        <time>2020-05-18T11:17:44Z</time>
      </trkpt>
      <trkpt lat="43.24203" lon="0.08248">
        <ele>302</ele>
        <time>2020-05-18T11:18:16Z</time>
      </trkpt>
      <trkpt lat="43.24233" lon="0.08245">
        <ele>303</ele>
        <time>2020-05-18T11:18:38Z</time>
      </trkpt>
      <trkpt lat="43.24238" lon="0.08247">
        <ele>303</ele>
        <time>2020-05-18T11:18:41Z</time>
      </trkpt>
      <trkpt lat="43.24253" lon="0.08249">
        <ele>302</ele>
        <time>2020-05-18T11:18:52Z</time>
      </trkpt>
      <trkpt lat="43.24258" lon="0.08247">
        <ele>302</ele>
        <time>2020-05-18T11:18:56Z</time>
      </trkpt>
      <trkpt lat="43.24269" lon="0.08244">
        <ele>302</ele>
        <time>2020-05-18T11:19:06Z</time>
      </trkpt>
      <trkpt lat="43.24291" lon="0.08246">
        <ele>302</ele>
        <time>2020-05-18T11:19:21Z</time>
      </trkpt>
      <trkpt lat="43.24301" lon="0.08251">
        <ele>301</ele>
        <time>2020-05-18T11:19:28Z</time>
      </trkpt>
      <trkpt lat="43.24306" lon="0.08256">
        <ele>301</ele>
        <time>2020-05-18T11:19:33Z</time>
      </trkpt>
      <trkpt lat="43.24307" lon="0.08264">
        <ele>301</ele>
        <time>2020-05-18T11:19:37Z</time>
      </trkpt>
      <trkpt lat="43.24313" lon="0.08268">
        <ele>301</ele>
        <time>2020-05-18T11:19:48Z</time>
      </trkpt>
      <trkpt lat="43.2432" lon="0.08262">
        <ele>302</ele>
        <time>2020-05-18T11:20:25Z</time>
      </trkpt>
      <trkpt lat="43.24334" lon="0.08263">
        <ele>302</ele>
        <time>2020-05-18T11:20:38Z</time>
      </trkpt>
      <trkpt lat="43.24339" lon="0.08262">
        <ele>302</ele>
        <time>2020-05-18T11:20:42Z</time>
      </trkpt>
      <trkpt lat="43.24357" lon="0.08263">
        <ele>301</ele>
        <time>2020-05-18T11:20:56Z</time>
      </trkpt>
      <trkpt lat="43.24363" lon="0.08261">
        <ele>301</ele>
        <time>2020-05-18T11:21:01Z</time>
      </trkpt>
      <trkpt lat="43.24369" lon="0.08264">
        <ele>301</ele>
        <time>2020-05-18T11:21:06Z</time>
      </trkpt>
      <trkpt lat="43.24393" lon="0.08263">
        <ele>301</ele>
        <time>2020-05-18T11:21:24Z</time>
      </trkpt>
      <trkpt lat="43.24399" lon="0.08261">
        <ele>301</ele>
        <time>2020-05-18T11:21:28Z</time>
      </trkpt>
      <trkpt lat="43.24422" lon="0.08258">
        <ele>301</ele>
        <time>2020-05-18T11:21:44Z</time>
      </trkpt>
      <trkpt lat="43.24456" lon="0.0825">
        <ele>300</ele>
        <time>2020-05-18T11:22:08Z</time>
      </trkpt>
      <trkpt lat="43.24495" lon="0.08255">
        <ele>300</ele>
        <time>2020-05-18T11:22:33Z</time>
      </trkpt>
      <trkpt lat="43.24506" lon="0.08263">
        <ele>300</ele>
        <time>2020-05-18T11:22:40Z</time>
      </trkpt>
      <trkpt lat="43.24512" lon="0.08265">
        <ele>300</ele>
        <time>2020-05-18T11:22:45Z</time>
      </trkpt>
      <trkpt lat="43.24517" lon="0.08264">
        <ele>300</ele>
        <time>2020-05-18T11:22:51Z</time>
      </trkpt>
      <trkpt lat="43.24528" lon="0.08264">
        <ele>300</ele>
        <time>2020-05-18T11:23:01Z</time>
      </trkpt>
      <trkpt lat="43.24533" lon="0.08266">
        <ele>300</ele>
        <time>2020-05-18T11:23:04Z</time>
      </trkpt>
      <trkpt lat="43.24552" lon="0.08291">
        <ele>300</ele>
        <time>2020-05-18T11:23:20Z</time>
      </trkpt>
      <trkpt lat="43.24592" lon="0.08318">
        <ele>300</ele>
        <time>2020-05-18T11:23:54Z</time>
      </trkpt>
      <trkpt lat="43.24618" lon="0.08327">
        <ele>299</ele>
        <time>2020-05-18T11:24:13Z</time>
      </trkpt>
      <trkpt lat="43.24659" lon="0.08328">
        <ele>299</ele>
        <time>2020-05-18T11:24:49Z</time>
      </trkpt>
      <trkpt lat="43.24666" lon="0.08328">
        <ele>299</ele>
        <time>2020-05-18T11:24:52Z</time>
      </trkpt>
      <trkpt lat="43.24673" lon="0.08329">
        <ele>299</ele>
        <time>2020-05-18T11:24:56Z</time>
      </trkpt>
      <trkpt lat="43.24701" lon="0.08347">
        <ele>300</ele>
        <time>2020-05-18T11:25:13Z</time>
      </trkpt>
      <trkpt lat="43.24736" lon="0.08347">
        <ele>300</ele>
        <time>2020-05-18T11:25:41Z</time>
      </trkpt>
      <trkpt lat="43.24741" lon="0.08345">
        <ele>300</ele>
        <time>2020-05-18T11:25:44Z</time>
      </trkpt>
      <trkpt lat="43.2475" lon="0.08339">
        <ele>300</ele>
        <time>2020-05-18T11:25:52Z</time>
      </trkpt>
      <trkpt lat="43.24755" lon="0.08341">
        <ele>300</ele>
        <time>2020-05-18T11:25:57Z</time>
      </trkpt>
      <trkpt lat="43.24787" lon="0.08339">
        <ele>299</ele>
        <time>2020-05-18T11:26:19Z</time>
      </trkpt>
      <trkpt lat="43.24798" lon="0.08341">
        <ele>299</ele>
        <time>2020-05-18T11:26:29Z</time>
      </trkpt>
      <trkpt lat="43.24803" lon="0.08338">
        <ele>299</ele>
        <time>2020-05-18T11:26:33Z</time>
      </trkpt>
      <trkpt lat="43.24808" lon="0.08336">
        <ele>299</ele>
        <time>2020-05-18T11:26:37Z</time>
      </trkpt>
      <trkpt lat="43.24811" lon="0.0833">
        <ele>299</ele>
        <time>2020-05-18T11:26:41Z</time>
      </trkpt>
      <trkpt lat="43.24816" lon="0.08327">
        <ele>299</ele>
        <time>2020-05-18T11:26:44Z</time>
      </trkpt>
      <trkpt lat="43.24821" lon="0.08325">
        <ele>299</ele>
        <time>2020-05-18T11:26:48Z</time>
      </trkpt>
      <trkpt lat="43.24827" lon="0.08325">
        <ele>299</ele>
        <time>2020-05-18T11:26:52Z</time>
      </trkpt>
      <trkpt lat="43.24832" lon="0.08324">
        <ele>299</ele>
        <time>2020-05-18T11:26:55Z</time>
      </trkpt>
      <trkpt lat="43.24836" lon="0.08321">
        <ele>299</ele>
        <time>2020-05-18T11:26:58Z</time>
      </trkpt>
      <trkpt lat="43.24846" lon="0.08319">
        <ele>299</ele>
        <time>2020-05-18T11:27:06Z</time>
      </trkpt>
      <trkpt lat="43.24861" lon="0.08321">
        <ele>298</ele>
        <time>2020-05-18T11:27:16Z</time>
      </trkpt>
      <trkpt lat="43.24871" lon="0.08321">
        <ele>299</ele>
        <time>2020-05-18T11:27:23Z</time>
      </trkpt>
      <trkpt lat="43.24888" lon="0.0832">
        <ele>298</ele>
        <time>2020-05-18T11:27:35Z</time>
      </trkpt>
      <trkpt lat="43.24928" lon="0.08313">
        <ele>298</ele>
        <time>2020-05-18T11:28:07Z</time>
      </trkpt>
      <trkpt lat="43.24976" lon="0.08316">
        <ele>298</ele>
        <time>2020-05-18T11:28:40Z</time>
      </trkpt>
      <trkpt lat="43.25015" lon="0.08323">
        <ele>298</ele>
        <time>2020-05-18T11:29:11Z</time>
      </trkpt>
      <trkpt lat="43.25021" lon="0.08322">
        <ele>298</ele>
        <time>2020-05-18T11:29:15Z</time>
      </trkpt>
      <trkpt lat="43.25026" lon="0.08324">
        <ele>298</ele>
        <time>2020-05-18T11:29:19Z</time>
      </trkpt>
      <trkpt lat="43.25031" lon="0.08322">
        <ele>298</ele>
        <time>2020-05-18T11:29:22Z</time>
      </trkpt>
      <trkpt lat="43.25036" lon="0.08322">
        <ele>298</ele>
        <time>2020-05-18T11:29:26Z</time>
      </trkpt>
      <trkpt lat="43.25042" lon="0.08322">
        <ele>298</ele>
        <time>2020-05-18T11:29:30Z</time>
      </trkpt>
      <trkpt lat="43.25046" lon="0.08322">
        <ele>298</ele>
        <time>2020-05-18T11:29:33Z</time>
      </trkpt>
      <trkpt lat="43.25051" lon="0.08323">
        <ele>298</ele>
        <time>2020-05-18T11:29:37Z</time>
      </trkpt>
      <trkpt lat="43.25082" lon="0.08334">
        <ele>298</ele>
        <time>2020-05-18T11:29:59Z</time>
      </trkpt>
      <trkpt lat="43.251" lon="0.08342">
        <ele>298</ele>
        <time>2020-05-18T11:30:14Z</time>
      </trkpt>
      <trkpt lat="43.25105" lon="0.08342">
        <ele>298</ele>
        <time>2020-05-18T11:30:18Z</time>
      </trkpt>
      <trkpt lat="43.25109" lon="0.08343">
        <ele>298</ele>
        <time>2020-05-18T11:30:22Z</time>
      </trkpt>
      <trkpt lat="43.25119" lon="0.08345">
        <ele>298</ele>
        <time>2020-05-18T11:30:30Z</time>
      </trkpt>
      <trkpt lat="43.25134" lon="0.08343">
        <ele>298</ele>
        <time>2020-05-18T11:30:41Z</time>
      </trkpt>
      <trkpt lat="43.25142" lon="0.0834">
        <ele>298</ele>
        <time>2020-05-18T11:30:46Z</time>
      </trkpt>
      <trkpt lat="43.25153" lon="0.08341">
        <ele>298</ele>
        <time>2020-05-18T11:30:55Z</time>
      </trkpt>
      <trkpt lat="43.25155" lon="0.0834">
        <ele>297</ele>
        <time>2020-05-18T11:31:21Z</time>
      </trkpt>
      <trkpt lat="43.25159" lon="0.08342">
        <ele>297</ele>
        <time>2020-05-18T11:31:33Z</time>
      </trkpt>
      <trkpt lat="43.25167" lon="0.08354">
        <ele>297</ele>
        <time>2020-05-18T11:31:47Z</time>
      </trkpt>
      <trkpt lat="43.25172" lon="0.08359">
        <ele>297</ele>
        <time>2020-05-18T11:31:51Z</time>
      </trkpt>
      <trkpt lat="43.25182" lon="0.08365">
        <ele>297</ele>
        <time>2020-05-18T11:32:00Z</time>
      </trkpt>
      <trkpt lat="43.25215" lon="0.08364">
        <ele>296</ele>
        <time>2020-05-18T11:32:26Z</time>
      </trkpt>
      <trkpt lat="43.25221" lon="0.08362">
        <ele>296</ele>
        <time>2020-05-18T11:32:31Z</time>
      </trkpt>
      <trkpt lat="43.25232" lon="0.08364">
        <ele>296</ele>
        <time>2020-05-18T11:32:39Z</time>
      </trkpt>
      <trkpt lat="43.2524" lon="0.08371">
        <ele>296</ele>
        <time>2020-05-18T11:32:46Z</time>
      </trkpt>
      <trkpt lat="43.25242" lon="0.08377">
        <ele>296</ele>
        <time>2020-05-18T11:32:49Z</time>
      </trkpt>
      <trkpt lat="43.25244" lon="0.08385">
        <ele>296</ele>
        <time>2020-05-18T11:32:53Z</time>
      </trkpt>
      <trkpt lat="43.2525" lon="0.08398">
        <ele>296</ele>
        <time>2020-05-18T11:33:01Z</time>
      </trkpt>
      <trkpt lat="43.25262" lon="0.08418">
        <ele>295</ele>
        <time>2020-05-18T11:33:17Z</time>
      </trkpt>
      <trkpt lat="43.25276" lon="0.0841">
        <ele>295</ele>
        <time>2020-05-18T11:33:29Z</time>
      </trkpt>
      <trkpt lat="43.25281" lon="0.08402">
        <ele>296</ele>
        <time>2020-05-18T11:33:34Z</time>
      </trkpt>
      <trkpt lat="43.25305" lon="0.08395">
        <ele>296</ele>
        <time>2020-05-18T11:33:53Z</time>
      </trkpt>
      <trkpt lat="43.25345" lon="0.08407">
        <ele>296</ele>
        <time>2020-05-18T11:34:24Z</time>
      </trkpt>
      <trkpt lat="43.25387" lon="0.08407">
        <ele>295</ele>
        <time>2020-05-18T11:34:55Z</time>
      </trkpt>
      <trkpt lat="43.25398" lon="0.08407">
        <ele>294</ele>
        <time>2020-05-18T11:35:04Z</time>
      </trkpt>
      <trkpt lat="43.25409" lon="0.08405">
        <ele>294</ele>
        <time>2020-05-18T11:35:11Z</time>
      </trkpt>
      <trkpt lat="43.25414" lon="0.08402">
        <ele>294</ele>
        <time>2020-05-18T11:35:15Z</time>
      </trkpt>
      <trkpt lat="43.2544" lon="0.08401">
        <ele>294</ele>
        <time>2020-05-18T11:35:36Z</time>
      </trkpt>
      <trkpt lat="43.25445" lon="0.084">
        <ele>294</ele>
        <time>2020-05-18T11:35:40Z</time>
      </trkpt>
      <trkpt lat="43.25451" lon="0.08402">
        <ele>294</ele>
        <time>2020-05-18T11:35:44Z</time>
      </trkpt>
      <trkpt lat="43.25457" lon="0.08401">
        <ele>294</ele>
        <time>2020-05-18T11:35:48Z</time>
      </trkpt>
      <trkpt lat="43.25462" lon="0.08398">
        <ele>294</ele>
        <time>2020-05-18T11:35:53Z</time>
      </trkpt>
      <trkpt lat="43.25468" lon="0.08398">
        <ele>294</ele>
        <time>2020-05-18T11:35:58Z</time>
      </trkpt>
      <trkpt lat="43.25498" lon="0.08389">
        <ele>293</ele>
        <time>2020-05-18T11:36:18Z</time>
      </trkpt>
      <trkpt lat="43.25508" lon="0.08388">
        <ele>293</ele>
        <time>2020-05-18T11:36:25Z</time>
      </trkpt>
      <trkpt lat="43.25533" lon="0.08379">
        <ele>293</ele>
        <time>2020-05-18T11:36:45Z</time>
      </trkpt>
      <trkpt lat="43.25573" lon="0.08378">
        <ele>293</ele>
        <time>2020-05-18T11:37:15Z</time>
      </trkpt>
      <trkpt lat="43.25579" lon="0.08379">
        <ele>293</ele>
        <time>2020-05-18T11:37:19Z</time>
      </trkpt>
      <trkpt lat="43.25602" lon="0.08373">
        <ele>293</ele>
        <time>2020-05-18T11:37:37Z</time>
      </trkpt>
      <trkpt lat="43.25616" lon="0.08376">
        <ele>293</ele>
        <time>2020-05-18T11:37:48Z</time>
      </trkpt>
      <trkpt lat="43.2562" lon="0.08373">
        <ele>292</ele>
        <time>2020-05-18T11:37:55Z</time>
      </trkpt>
      <trkpt lat="43.25644" lon="0.08362">
        <ele>292</ele>
        <time>2020-05-18T11:38:13Z</time>
      </trkpt>
      <trkpt lat="43.25669" lon="0.08371">
        <ele>292</ele>
        <time>2020-05-18T11:38:29Z</time>
      </trkpt>
      <trkpt lat="43.25675" lon="0.08373">
        <ele>292</ele>
        <time>2020-05-18T11:38:38Z</time>
      </trkpt>
      <trkpt lat="43.25679" lon="0.08371">
        <ele>292</ele>
        <time>2020-05-18T11:39:08Z</time>
      </trkpt>
      <trkpt lat="43.25683" lon="0.08366">
        <ele>292</ele>
        <time>2020-05-18T11:39:14Z</time>
      </trkpt>
      <trkpt lat="43.25688" lon="0.08367">
        <ele>293</ele>
        <time>2020-05-18T11:39:18Z</time>
      </trkpt>
      <trkpt lat="43.25704" lon="0.08363">
        <ele>292</ele>
        <time>2020-05-18T11:39:30Z</time>
      </trkpt>
      <trkpt lat="43.25719" lon="0.08357">
        <ele>292</ele>
        <time>2020-05-18T11:39:42Z</time>
      </trkpt>
      <trkpt lat="43.25735" lon="0.08356">
        <ele>292</ele>
        <time>2020-05-18T11:39:52Z</time>
      </trkpt>
      <trkpt lat="43.25741" lon="0.08357">
        <ele>292</ele>
        <time>2020-05-18T11:39:57Z</time>
      </trkpt>
      <trkpt lat="43.25756" lon="0.08355">
        <ele>292</ele>
        <time>2020-05-18T11:40:08Z</time>
      </trkpt>
      <trkpt lat="43.25762" lon="0.08356">
        <ele>292</ele>
        <time>2020-05-18T11:40:12Z</time>
      </trkpt>
      <trkpt lat="43.25785" lon="0.08355">
        <ele>292</ele>
        <time>2020-05-18T11:40:29Z</time>
      </trkpt>
      <trkpt lat="43.2579" lon="0.08357">
        <ele>292</ele>
        <time>2020-05-18T11:40:33Z</time>
      </trkpt>
      <trkpt lat="43.2582" lon="0.08351">
        <ele>292</ele>
        <time>2020-05-18T11:40:58Z</time>
      </trkpt>
      <trkpt lat="43.25839" lon="0.08353">
        <ele>292</ele>
        <time>2020-05-18T11:41:10Z</time>
      </trkpt>
      <trkpt lat="43.25854" lon="0.0835">
        <ele>292</ele>
        <time>2020-05-18T11:41:21Z</time>
      </trkpt>
      <trkpt lat="43.25897" lon="0.08357">
        <ele>291</ele>
        <time>2020-05-18T11:41:55Z</time>
      </trkpt>
      <trkpt lat="43.25904" lon="0.08358">
        <ele>291</ele>
        <time>2020-05-18T11:41:59Z</time>
      </trkpt>
      <trkpt lat="43.25924" lon="0.08357">
        <ele>292</ele>
        <time>2020-05-18T11:42:13Z</time>
      </trkpt>
      <trkpt lat="43.25971" lon="0.08366">
        <ele>292</ele>
        <time>2020-05-18T11:42:46Z</time>
      </trkpt>
      <trkpt lat="43.25983" lon="0.08366">
        <ele>291</ele>
        <time>2020-05-18T11:42:56Z</time>
      </trkpt>
      <trkpt lat="43.25994" lon="0.08368">
        <ele>291</ele>
        <time>2020-05-18T11:43:04Z</time>
      </trkpt>
      <trkpt lat="43.26" lon="0.08367">
        <ele>291</ele>
        <time>2020-05-18T11:43:09Z</time>
      </trkpt>
      <trkpt lat="43.26005" lon="0.08363">
        <ele>291</ele>
        <time>2020-05-18T11:43:14Z</time>
      </trkpt>
      <trkpt lat="43.26012" lon="0.08365">
        <ele>291</ele>
        <time>2020-05-18T11:43:19Z</time>
      </trkpt>
      <trkpt lat="43.26031" lon="0.08358">
        <ele>291</ele>
        <time>2020-05-18T11:43:33Z</time>
      </trkpt>
      <trkpt lat="43.26042" lon="0.08358">
        <ele>291</ele>
        <time>2020-05-18T11:43:41Z</time>
      </trkpt>
      <trkpt lat="43.26057" lon="0.08365">
        <ele>291</ele>
        <time>2020-05-18T11:43:52Z</time>
      </trkpt>
      <trkpt lat="43.26063" lon="0.08364">
        <ele>291</ele>
        <time>2020-05-18T11:43:57Z</time>
      </trkpt>
      <trkpt lat="43.26079" lon="0.08358">
        <ele>291</ele>
        <time>2020-05-18T11:44:10Z</time>
      </trkpt>
      <trkpt lat="43.26084" lon="0.08353">
        <ele>291</ele>
        <time>2020-05-18T11:44:15Z</time>
      </trkpt>
      <trkpt lat="43.26109" lon="0.08345">
        <ele>291</ele>
        <time>2020-05-18T11:44:33Z</time>
      </trkpt>
      <trkpt lat="43.26116" lon="0.08344">
        <ele>290</ele>
        <time>2020-05-18T11:44:38Z</time>
      </trkpt>
      <trkpt lat="43.26122" lon="0.08347">
        <ele>290</ele>
        <time>2020-05-18T11:44:43Z</time>
      </trkpt>
      <trkpt lat="43.26159" lon="0.08345">
        <ele>290</ele>
        <time>2020-05-18T11:45:11Z</time>
      </trkpt>
      <trkpt lat="43.26166" lon="0.08346">
        <ele>290</ele>
        <time>2020-05-18T11:45:15Z</time>
      </trkpt>
      <trkpt lat="43.26185" lon="0.08338">
        <ele>290</ele>
        <time>2020-05-18T11:45:30Z</time>
      </trkpt>
      <trkpt lat="43.26191" lon="0.08342">
        <ele>290</ele>
        <time>2020-05-18T11:45:35Z</time>
      </trkpt>
      <trkpt lat="43.26198" lon="0.08342">
        <ele>290</ele>
        <time>2020-05-18T11:45:39Z</time>
      </trkpt>
      <trkpt lat="43.26214" lon="0.08336">
        <ele>290</ele>
        <time>2020-05-18T11:45:51Z</time>
      </trkpt>
      <trkpt lat="43.26219" lon="0.08337">
        <ele>290</ele>
        <time>2020-05-18T11:45:55Z</time>
      </trkpt>
      <trkpt lat="43.26226" lon="0.08335">
        <ele>290</ele>
        <time>2020-05-18T11:46:00Z</time>
      </trkpt>
      <trkpt lat="43.26249" lon="0.08332">
        <ele>289</ele>
        <time>2020-05-18T11:46:17Z</time>
      </trkpt>
      <trkpt lat="43.26255" lon="0.08328">
        <ele>289</ele>
        <time>2020-05-18T11:46:21Z</time>
      </trkpt>
      <trkpt lat="43.26267" lon="0.08322">
        <ele>289</ele>
        <time>2020-05-18T11:46:31Z</time>
      </trkpt>
      <trkpt lat="43.26273" lon="0.08317">
        <ele>289</ele>
        <time>2020-05-18T11:46:36Z</time>
      </trkpt>
      <trkpt lat="43.26293" lon="0.08318">
        <ele>288</ele>
        <time>2020-05-18T11:46:49Z</time>
      </trkpt>
      <trkpt lat="43.26309" lon="0.0833">
        <ele>288</ele>
        <time>2020-05-18T11:46:58Z</time>
      </trkpt>
      <trkpt lat="43.26314" lon="0.08328">
        <ele>288</ele>
        <time>2020-05-18T11:47:04Z</time>
      </trkpt>
      <trkpt lat="43.26321" lon="0.08331">
        <ele>288</ele>
        <time>2020-05-18T11:47:09Z</time>
      </trkpt>
      <trkpt lat="43.2634" lon="0.08329">
        <ele>288</ele>
        <time>2020-05-18T11:47:23Z</time>
      </trkpt>
      <trkpt lat="43.26346" lon="0.08326">
        <ele>288</ele>
        <time>2020-05-18T11:47:29Z</time>
      </trkpt>
      <trkpt lat="43.26358" lon="0.08327">
        <ele>288</ele>
        <time>2020-05-18T11:47:37Z</time>
      </trkpt>
      <trkpt lat="43.26381" lon="0.08321">
        <ele>288</ele>
        <time>2020-05-18T11:47:54Z</time>
      </trkpt>
      <trkpt lat="43.26387" lon="0.0832">
        <ele>288</ele>
        <time>2020-05-18T11:47:59Z</time>
      </trkpt>
      <trkpt lat="43.26393" lon="0.08318">
        <ele>288</ele>
        <time>2020-05-18T11:48:03Z</time>
      </trkpt>
      <trkpt lat="43.26404" lon="0.08314">
        <ele>288</ele>
        <time>2020-05-18T11:48:10Z</time>
      </trkpt>
      <trkpt lat="43.26421" lon="0.08311">
        <ele>287</ele>
        <time>2020-05-18T11:48:25Z</time>
      </trkpt>
      <trkpt lat="43.26431" lon="0.08304">
        <ele>287</ele>
        <time>2020-05-18T11:48:34Z</time>
      </trkpt>
      <trkpt lat="43.26444" lon="0.08306">
        <ele>288</ele>
        <time>2020-05-18T11:48:43Z</time>
      </trkpt>
      <trkpt lat="43.2645" lon="0.08303">
        <ele>287</ele>
        <time>2020-05-18T11:48:48Z</time>
      </trkpt>
      <trkpt lat="43.26475" lon="0.08307">
        <ele>287</ele>
        <time>2020-05-18T11:49:04Z</time>
      </trkpt>
      <trkpt lat="43.26484" lon="0.08321">
        <ele>286</ele>
        <time>2020-05-18T11:49:12Z</time>
      </trkpt>
      <trkpt lat="43.26488" lon="0.08328">
        <ele>286</ele>
        <time>2020-05-18T11:49:17Z</time>
      </trkpt>
      <trkpt lat="43.26524" lon="0.08361">
        <ele>286</ele>
        <time>2020-05-18T11:49:50Z</time>
      </trkpt>
      <trkpt lat="43.2653" lon="0.08367">
        <ele>286</ele>
        <time>2020-05-18T11:49:55Z</time>
      </trkpt>
      <trkpt lat="43.26534" lon="0.08374">
        <ele>286</ele>
        <time>2020-05-18T11:50:00Z</time>
      </trkpt>
      <trkpt lat="43.26539" lon="0.08377">
        <ele>286</ele>
        <time>2020-05-18T11:50:39Z</time>
      </trkpt>
      <trkpt lat="43.26526" lon="0.08409">
        <ele>286</ele>
        <time>2020-05-18T11:50:58Z</time>
      </trkpt>
      <trkpt lat="43.26521" lon="0.08442">
        <ele>286</ele>
        <time>2020-05-18T11:51:19Z</time>
      </trkpt>
      <trkpt lat="43.26518" lon="0.0845">
        <ele>286</ele>
        <time>2020-05-18T11:51:23Z</time>
      </trkpt>
      <trkpt lat="43.26518" lon="0.08456">
        <ele>286</ele>
        <time>2020-05-18T11:51:27Z</time>
      </trkpt>
      <trkpt lat="43.2652" lon="0.08464">
        <ele>286</ele>
        <time>2020-05-18T11:51:31Z</time>
      </trkpt>
      <trkpt lat="43.26517" lon="0.08493">
        <ele>286</ele>
        <time>2020-05-18T11:51:47Z</time>
      </trkpt>
      <trkpt lat="43.26515" lon="0.085">
        <ele>286</ele>
        <time>2020-05-18T11:51:51Z</time>
      </trkpt>
      <trkpt lat="43.26515" lon="0.08507">
        <ele>286</ele>
        <time>2020-05-18T11:51:55Z</time>
      </trkpt>
      <trkpt lat="43.26517" lon="0.08514">
        <ele>286</ele>
        <time>2020-05-18T11:51:59Z</time>
      </trkpt>
      <trkpt lat="43.26512" lon="0.08529">
        <ele>286</ele>
        <time>2020-05-18T11:52:07Z</time>
      </trkpt>
      <trkpt lat="43.26514" lon="0.08555">
        <ele>287</ele>
        <time>2020-05-18T11:52:23Z</time>
      </trkpt>
      <trkpt lat="43.26518" lon="0.08571">
        <ele>287</ele>
        <time>2020-05-18T11:52:32Z</time>
      </trkpt>
      <trkpt lat="43.26519" lon="0.08579">
        <ele>287</ele>
        <time>2020-05-18T11:52:39Z</time>
      </trkpt>
      <trkpt lat="43.26516" lon="0.08587">
        <ele>287</ele>
        <time>2020-05-18T11:52:48Z</time>
      </trkpt>
      <trkpt lat="43.26513" lon="0.08574">
        <ele>287</ele>
        <time>2020-05-18T11:54:00Z</time>
      </trkpt>
      <trkpt lat="43.2651" lon="0.08564">
        <ele>287</ele>
        <time>2020-05-18T11:54:10Z</time>
      </trkpt>
      <trkpt lat="43.26502" lon="0.08534">
        <ele>286</ele>
        <time>2020-05-18T11:54:30Z</time>
      </trkpt>
      <trkpt lat="43.26504" lon="0.08517">
        <ele>285</ele>
        <time>2020-05-18T11:54:38Z</time>
      </trkpt>
      <trkpt lat="43.26502" lon="0.08509">
        <ele>286</ele>
        <time>2020-05-18T11:54:43Z</time>
      </trkpt>
      <trkpt lat="43.26508" lon="0.08488">
        <ele>286</ele>
        <time>2020-05-18T11:54:55Z</time>
      </trkpt>
      <trkpt lat="43.26508" lon="0.08476">
        <ele>286</ele>
        <time>2020-05-18T11:55:03Z</time>
      </trkpt>
      <trkpt lat="43.26513" lon="0.08449">
        <ele>286</ele>
        <time>2020-05-18T11:55:20Z</time>
      </trkpt>
      <trkpt lat="43.26516" lon="0.08441">
        <ele>286</ele>
        <time>2020-05-18T11:55:25Z</time>
      </trkpt>
      <trkpt lat="43.26517" lon="0.08431">
        <ele>286</ele>
        <time>2020-05-18T11:55:30Z</time>
      </trkpt>
      <trkpt lat="43.26518" lon="0.08421">
        <ele>286</ele>
        <time>2020-05-18T11:55:35Z</time>
      </trkpt>
      <trkpt lat="43.26522" lon="0.08404">
        <ele>286</ele>
        <time>2020-05-18T11:55:45Z</time>
      </trkpt>
      <trkpt lat="43.26527" lon="0.08398">
        <ele>286</ele>
        <time>2020-05-18T11:55:51Z</time>
      </trkpt>
      <trkpt lat="43.26533" lon="0.08381">
        <ele>286</ele>
        <time>2020-05-18T11:56:04Z</time>
      </trkpt>
      <trkpt lat="43.26539" lon="0.08379">
        <ele>286</ele>
        <time>2020-05-18T11:56:08Z</time>
      </trkpt>
      <trkpt lat="43.26569" lon="0.08396">
        <ele>286</ele>
        <time>2020-05-18T11:56:33Z</time>
      </trkpt>
      <trkpt lat="43.26603" lon="0.08408">
        <ele>285</ele>
        <time>2020-05-18T11:57:00Z</time>
      </trkpt>
      <trkpt lat="43.26616" lon="0.08415">
        <ele>285</ele>
        <time>2020-05-18T11:57:10Z</time>
      </trkpt>
      <trkpt lat="43.26622" lon="0.0842">
        <ele>285</ele>
        <time>2020-05-18T11:57:15Z</time>
      </trkpt>
      <trkpt lat="43.26665" lon="0.08432">
        <ele>285</ele>
        <time>2020-05-18T11:57:48Z</time>
      </trkpt>
      <trkpt lat="43.26677" lon="0.08436">
        <ele>284</ele>
        <time>2020-05-18T11:58:00Z</time>
      </trkpt>
      <trkpt lat="43.2669" lon="0.08438">
        <ele>284</ele>
        <time>2020-05-18T11:58:11Z</time>
      </trkpt>
      <trkpt lat="43.26697" lon="0.08441">
        <ele>284</ele>
        <time>2020-05-18T11:58:15Z</time>
      </trkpt>
      <trkpt lat="43.26741" lon="0.08447">
        <ele>283</ele>
        <time>2020-05-18T11:58:48Z</time>
      </trkpt>
      <trkpt lat="43.2676" lon="0.08445">
        <ele>283</ele>
        <time>2020-05-18T11:59:02Z</time>
      </trkpt>
      <trkpt lat="43.26801" lon="0.08431">
        <ele>283</ele>
        <time>2020-05-18T11:59:32Z</time>
      </trkpt>
      <trkpt lat="43.26812" lon="0.08425">
        <ele>283</ele>
        <time>2020-05-18T11:59:41Z</time>
      </trkpt>
      <trkpt lat="43.26825" lon="0.08424">
        <ele>283</ele>
        <time>2020-05-18T11:59:51Z</time>
      </trkpt>
      <trkpt lat="43.26843" lon="0.08415">
        <ele>282</ele>
        <time>2020-05-18T12:00:05Z</time>
      </trkpt>
      <trkpt lat="43.26849" lon="0.08414">
        <ele>282</ele>
        <time>2020-05-18T12:00:10Z</time>
      </trkpt>
      <trkpt lat="43.2686" lon="0.08408">
        <ele>282</ele>
        <time>2020-05-18T12:00:19Z</time>
      </trkpt>
      <trkpt lat="43.26867" lon="0.08407">
        <ele>282</ele>
        <time>2020-05-18T12:00:25Z</time>
      </trkpt>
      <trkpt lat="43.26873" lon="0.08403">
        <ele>282</ele>
        <time>2020-05-18T12:00:29Z</time>
      </trkpt>
      <trkpt lat="43.26893" lon="0.08398">
        <ele>281</ele>
        <time>2020-05-18T12:00:46Z</time>
      </trkpt>
      <trkpt lat="43.2693" lon="0.08377">
        <ele>281</ele>
        <time>2020-05-18T12:01:15Z</time>
      </trkpt>
      <trkpt lat="43.26942" lon="0.08375">
        <ele>280</ele>
        <time>2020-05-18T12:01:22Z</time>
      </trkpt>
      <trkpt lat="43.26958" lon="0.08372">
        <ele>280</ele>
        <time>2020-05-18T12:01:43Z</time>
      </trkpt>
      <trkpt lat="43.26989" lon="0.08367">
        <ele>280</ele>
        <time>2020-05-18T12:02:05Z</time>
      </trkpt>
      <trkpt lat="43.27023" lon="0.08377">
        <ele>281</ele>
        <time>2020-05-18T12:02:29Z</time>
      </trkpt>
      <trkpt lat="43.27036" lon="0.08389">
        <ele>281</ele>
        <time>2020-05-18T12:02:42Z</time>
      </trkpt>
      <trkpt lat="43.27047" lon="0.08394">
        <ele>281</ele>
        <time>2020-05-18T12:02:50Z</time>
      </trkpt>
      <trkpt lat="43.27075" lon="0.08391">
        <ele>281</ele>
        <time>2020-05-18T12:03:12Z</time>
      </trkpt>
      <trkpt lat="43.27085" lon="0.08384">
        <ele>281</ele>
        <time>2020-05-18T12:03:20Z</time>
      </trkpt>
      <trkpt lat="43.27089" lon="0.08383">
        <ele>281</ele>
        <time>2020-05-18T12:03:24Z</time>
      </trkpt>
      <trkpt lat="43.27105" lon="0.08374">
        <ele>281</ele>
        <time>2020-05-18T12:03:39Z</time>
      </trkpt>
      <trkpt lat="43.2711" lon="0.08373">
        <ele>281</ele>
        <time>2020-05-18T12:03:42Z</time>
      </trkpt>
      <trkpt lat="43.27148" lon="0.08351">
        <ele>281</ele>
        <time>2020-05-18T12:04:12Z</time>
      </trkpt>
      <trkpt lat="43.27158" lon="0.08351">
        <ele>281</ele>
        <time>2020-05-18T12:04:18Z</time>
      </trkpt>
      <trkpt lat="43.27163" lon="0.08349">
        <ele>281</ele>
        <time>2020-05-18T12:04:21Z</time>
      </trkpt>
      <trkpt lat="43.2719" lon="0.08352">
        <ele>281</ele>
        <time>2020-05-18T12:04:42Z</time>
      </trkpt>
      <trkpt lat="43.27197" lon="0.08357">
        <ele>280</ele>
        <time>2020-05-18T12:05:22Z</time>
      </trkpt>
      <trkpt lat="43.27202" lon="0.08362">
        <ele>280</ele>
        <time>2020-05-18T12:05:26Z</time>
      </trkpt>
      <trkpt lat="43.27236" lon="0.08379">
        <ele>279</ele>
        <time>2020-05-18T12:05:54Z</time>
      </trkpt>
      <trkpt lat="43.27279" lon="0.0839">
        <ele>279</ele>
        <time>2020-05-18T12:06:26Z</time>
      </trkpt>
      <trkpt lat="43.27284" lon="0.08389">
        <ele>279</ele>
        <time>2020-05-18T12:06:30Z</time>
      </trkpt>
      <trkpt lat="43.2731" lon="0.0839">
        <ele>279</ele>
        <time>2020-05-18T12:06:49Z</time>
      </trkpt>
      <trkpt lat="43.27326" lon="0.08388">
        <ele>279</ele>
        <time>2020-05-18T12:07:00Z</time>
      </trkpt>
      <trkpt lat="43.27331" lon="0.08385">
        <ele>279</ele>
        <time>2020-05-18T12:07:04Z</time>
      </trkpt>
      <trkpt lat="43.27348" lon="0.08385">
        <ele>279</ele>
        <time>2020-05-18T12:07:17Z</time>
      </trkpt>
      <trkpt lat="43.2737" lon="0.08381">
        <ele>279</ele>
        <time>2020-05-18T12:07:43Z</time>
      </trkpt>
      <trkpt lat="43.27382" lon="0.08374">
        <ele>279</ele>
        <time>2020-05-18T12:07:52Z</time>
      </trkpt>
      <trkpt lat="43.27388" lon="0.08376">
        <ele>279</ele>
        <time>2020-05-18T12:07:56Z</time>
      </trkpt>
      <trkpt lat="43.27411" lon="0.08367">
        <ele>279</ele>
        <time>2020-05-18T12:08:15Z</time>
      </trkpt>
      <trkpt lat="43.27424" lon="0.08368">
        <ele>278</ele>
        <time>2020-05-18T12:08:24Z</time>
      </trkpt>
      <trkpt lat="43.27434" lon="0.08373">
        <ele>278</ele>
        <time>2020-05-18T12:08:30Z</time>
      </trkpt>
      <trkpt lat="43.27438" lon="0.08372">
        <ele>278</ele>
        <time>2020-05-18T12:08:34Z</time>
      </trkpt>
      <trkpt lat="43.27449" lon="0.08374">
        <ele>278</ele>
        <time>2020-05-18T12:08:43Z</time>
      </trkpt>
      <trkpt lat="43.27471" lon="0.08373">
        <ele>278</ele>
        <time>2020-05-18T12:08:58Z</time>
      </trkpt>
      <trkpt lat="43.27477" lon="0.08374">
        <ele>278</ele>
        <time>2020-05-18T12:09:02Z</time>
      </trkpt>
      <trkpt lat="43.27483" lon="0.08373">
        <ele>278</ele>
        <time>2020-05-18T12:09:06Z</time>
      </trkpt>
      <trkpt lat="43.27498" lon="0.08381">
        <ele>278</ele>
        <time>2020-05-18T12:09:18Z</time>
      </trkpt>
      <trkpt lat="43.27539" lon="0.08392">
        <ele>278</ele>
        <time>2020-05-18T12:09:52Z</time>
      </trkpt>
      <trkpt lat="43.27549" lon="0.08394">
        <ele>278</ele>
        <time>2020-05-18T12:10:00Z</time>
      </trkpt>
      <trkpt lat="43.27553" lon="0.08398">
        <ele>278</ele>
        <time>2020-05-18T12:10:03Z</time>
      </trkpt>
      <trkpt lat="43.27558" lon="0.08401">
        <ele>278</ele>
        <time>2020-05-18T12:10:08Z</time>
      </trkpt>
      <trkpt lat="43.27563" lon="0.084">
        <ele>279</ele>
        <time>2020-05-18T12:10:12Z</time>
      </trkpt>
      <trkpt lat="43.27589" lon="0.0841">
        <ele>278</ele>
        <time>2020-05-18T12:10:32Z</time>
      </trkpt>
      <trkpt lat="43.27624" lon="0.08411">
        <ele>278</ele>
        <time>2020-05-18T12:11:01Z</time>
      </trkpt>
      <trkpt lat="43.27629" lon="0.08413">
        <ele>277</ele>
        <time>2020-05-18T12:11:04Z</time>
      </trkpt>
      <trkpt lat="43.27633" lon="0.08413">
        <ele>277</ele>
        <time>2020-05-18T12:11:08Z</time>
      </trkpt>
      <trkpt lat="43.27638" lon="0.08411">
        <ele>277</ele>
        <time>2020-05-18T12:11:12Z</time>
      </trkpt>
      <trkpt lat="43.27642" lon="0.08407">
        <ele>277</ele>
        <time>2020-05-18T12:11:16Z</time>
      </trkpt>
      <trkpt lat="43.27645" lon="0.08401">
        <ele>276</ele>
        <time>2020-05-18T12:11:20Z</time>
      </trkpt>
      <trkpt lat="43.2765" lon="0.08398">
        <ele>276</ele>
        <time>2020-05-18T12:11:24Z</time>
      </trkpt>
      <trkpt lat="43.27654" lon="0.08394">
        <ele>276</ele>
        <time>2020-05-18T12:11:29Z</time>
      </trkpt>
      <trkpt lat="43.2766" lon="0.084">
        <ele>276</ele>
        <time>2020-05-18T12:11:46Z</time>
      </trkpt>
      <trkpt lat="43.2766" lon="0.08401">
        <ele>276</ele>
        <time>2020-05-18T12:12:16Z</time>
      </trkpt>
      <trkpt lat="43.27652" lon="0.08379">
        <ele>277</ele>
        <time>2020-05-18T12:12:47Z</time>
      </trkpt>
      <trkpt lat="43.2765" lon="0.0837">
        <ele>277</ele>
        <time>2020-05-18T12:12:53Z</time>
      </trkpt>
      <trkpt lat="43.27649" lon="0.08319">
        <ele>277</ele>
        <time>2020-05-18T12:13:24Z</time>
      </trkpt>
      <trkpt lat="43.2765" lon="0.08302">
        <ele>276</ele>
        <time>2020-05-18T12:13:33Z</time>
      </trkpt>
      <trkpt lat="43.27651" lon="0.08295">
        <ele>276</ele>
        <time>2020-05-18T12:13:38Z</time>
      </trkpt>
      <trkpt lat="43.27648" lon="0.08287">
        <ele>276</ele>
        <time>2020-05-18T12:13:59Z</time>
      </trkpt>
      <trkpt lat="43.27654" lon="0.08284">
        <ele>276</ele>
        <time>2020-05-18T12:14:04Z</time>
      </trkpt>
      <trkpt lat="43.27658" lon="0.08279">
        <ele>276</ele>
        <time>2020-05-18T12:14:10Z</time>
      </trkpt>
      <trkpt lat="43.27659" lon="0.08271">
        <ele>277</ele>
        <time>2020-05-18T12:14:15Z</time>
      </trkpt>
      <trkpt lat="43.27663" lon="0.08267">
        <ele>277</ele>
        <time>2020-05-18T12:14:20Z</time>
      </trkpt>
      <trkpt lat="43.27669" lon="0.08266">
        <ele>277</ele>
        <time>2020-05-18T12:14:24Z</time>
      </trkpt>
      <trkpt lat="43.27673" lon="0.08263">
        <ele>277</ele>
        <time>2020-05-18T12:14:27Z</time>
      </trkpt>
      <trkpt lat="43.27678" lon="0.08265">
        <ele>277</ele>
        <time>2020-05-18T12:14:37Z</time>
      </trkpt>
      <trkpt lat="43.27687" lon="0.08271">
        <ele>277</ele>
        <time>2020-05-18T12:14:45Z</time>
      </trkpt>
      <trkpt lat="43.27697" lon="0.08274">
        <ele>277</ele>
        <time>2020-05-18T12:14:53Z</time>
      </trkpt>
      <trkpt lat="43.27707" lon="0.0828">
        <ele>277</ele>
        <time>2020-05-18T12:15:01Z</time>
      </trkpt>
      <trkpt lat="43.2773" lon="0.08285">
        <ele>277</ele>
        <time>2020-05-18T12:15:19Z</time>
      </trkpt>
      <trkpt lat="43.27736" lon="0.08282">
        <ele>277</ele>
        <time>2020-05-18T12:15:23Z</time>
      </trkpt>
      <trkpt lat="43.27741" lon="0.08284">
        <ele>277</ele>
        <time>2020-05-18T12:15:27Z</time>
      </trkpt>
      <trkpt lat="43.27753" lon="0.08291">
        <ele>277</ele>
        <time>2020-05-18T12:15:37Z</time>
      </trkpt>
      <trkpt lat="43.2776" lon="0.08291">
        <ele>276</ele>
        <time>2020-05-18T12:15:43Z</time>
      </trkpt>
      <trkpt lat="43.27765" lon="0.08294">
        <ele>276</ele>
        <time>2020-05-18T12:15:46Z</time>
      </trkpt>
      <trkpt lat="43.27775" lon="0.08296">
        <ele>276</ele>
        <time>2020-05-18T12:16:11Z</time>
      </trkpt>
      <trkpt lat="43.27781" lon="0.08295">
        <ele>276</ele>
        <time>2020-05-18T12:16:16Z</time>
      </trkpt>
      <trkpt lat="43.27786" lon="0.08291">
        <ele>276</ele>
        <time>2020-05-18T12:16:21Z</time>
      </trkpt>
      <trkpt lat="43.2781" lon="0.08285">
        <ele>275</ele>
        <time>2020-05-18T12:16:40Z</time>
      </trkpt>
      <trkpt lat="43.27822" lon="0.08284">
        <ele>275</ele>
        <time>2020-05-18T12:16:48Z</time>
      </trkpt>
      <trkpt lat="43.27832" lon="0.08279">
        <ele>275</ele>
        <time>2020-05-18T12:16:56Z</time>
      </trkpt>
      <trkpt lat="43.27838" lon="0.08278">
        <ele>275</ele>
        <time>2020-05-18T12:17:00Z</time>
      </trkpt>
      <trkpt lat="43.27842" lon="0.08276">
        <ele>275</ele>
        <time>2020-05-18T12:17:03Z</time>
      </trkpt>
      <trkpt lat="43.27852" lon="0.08274">
        <ele>274</ele>
        <time>2020-05-18T12:17:11Z</time>
      </trkpt>
      <trkpt lat="43.27894" lon="0.08255">
        <ele>274</ele>
        <time>2020-05-18T12:17:43Z</time>
      </trkpt>
      <trkpt lat="43.27933" lon="0.08235">
        <ele>274</ele>
        <time>2020-05-18T12:19:07Z</time>
      </trkpt>
      <trkpt lat="43.27974" lon="0.08218">
        <ele>272</ele>
        <time>2020-05-18T12:19:41Z</time>
      </trkpt>
      <trkpt lat="43.27979" lon="0.08216">
        <ele>272</ele>
        <time>2020-05-18T12:19:45Z</time>
      </trkpt>
      <trkpt lat="43.27984" lon="0.08213">
        <ele>272</ele>
        <time>2020-05-18T12:19:49Z</time>
      </trkpt>
      <trkpt lat="43.28027" lon="0.08198">
        <ele>272</ele>
        <time>2020-05-18T12:20:22Z</time>
      </trkpt>
      <trkpt lat="43.28062" lon="0.08186">
        <ele>271</ele>
        <time>2020-05-18T12:20:49Z</time>
      </trkpt>
      <trkpt lat="43.28095" lon="0.08165">
        <ele>270</ele>
        <time>2020-05-18T12:21:16Z</time>
      </trkpt>
      <trkpt lat="43.28134" lon="0.08158">
        <ele>269</ele>
        <time>2020-05-18T12:21:44Z</time>
      </trkpt>
      <trkpt lat="43.28139" lon="0.08155">
        <ele>269</ele>
        <time>2020-05-18T12:21:48Z</time>
      </trkpt>
      <trkpt lat="43.2815" lon="0.08154">
        <ele>269</ele>
        <time>2020-05-18T12:21:56Z</time>
      </trkpt>
      <trkpt lat="43.28155" lon="0.0815">
        <ele>269</ele>
        <time>2020-05-18T12:22:01Z</time>
      </trkpt>
      <trkpt lat="43.28173" lon="0.08148">
        <ele>268</ele>
        <time>2020-05-18T12:22:13Z</time>
      </trkpt>
      <trkpt lat="43.28207" lon="0.08134">
        <ele>268</ele>
        <time>2020-05-18T12:22:44Z</time>
      </trkpt>
      <trkpt lat="43.28225" lon="0.08131">
        <ele>268</ele>
        <time>2020-05-18T12:22:58Z</time>
      </trkpt>
      <trkpt lat="43.28229" lon="0.08128">
        <ele>268</ele>
        <time>2020-05-18T12:23:01Z</time>
      </trkpt>
      <trkpt lat="43.28241" lon="0.08128">
        <ele>268</ele>
        <time>2020-05-18T12:23:09Z</time>
      </trkpt>
      <trkpt lat="43.28278" lon="0.08113">
        <ele>269</ele>
        <time>2020-05-18T12:23:43Z</time>
      </trkpt>
      <trkpt lat="43.28284" lon="0.08111">
        <ele>269</ele>
        <time>2020-05-18T12:23:48Z</time>
      </trkpt>
      <trkpt lat="43.28289" lon="0.08108">
        <ele>269</ele>
        <time>2020-05-18T12:23:53Z</time>
      </trkpt>
      <trkpt lat="43.28313" lon="0.08097">
        <ele>269</ele>
        <time>2020-05-18T12:24:13Z</time>
      </trkpt>
      <trkpt lat="43.28319" lon="0.08098">
        <ele>270</ele>
        <time>2020-05-18T12:24:17Z</time>
      </trkpt>
      <trkpt lat="43.28324" lon="0.08097">
        <ele>270</ele>
        <time>2020-05-18T12:24:22Z</time>
      </trkpt>
      <trkpt lat="43.28335" lon="0.08091">
        <ele>270</ele>
        <time>2020-05-18T12:24:31Z</time>
      </trkpt>
      <trkpt lat="43.28346" lon="0.08088">
        <ele>270</ele>
        <time>2020-05-18T12:24:40Z</time>
      </trkpt>
      <trkpt lat="43.28389" lon="0.08067">
        <ele>270</ele>
        <time>2020-05-18T12:25:12Z</time>
      </trkpt>
      <trkpt lat="43.28427" lon="0.08057">
        <ele>270</ele>
        <time>2020-05-18T12:25:41Z</time>
      </trkpt>
      <trkpt lat="43.2844" lon="0.0805">
        <ele>270</ele>
        <time>2020-05-18T12:25:53Z</time>
      </trkpt>
      <trkpt lat="43.28446" lon="0.08051">
        <ele>270</ele>
        <time>2020-05-18T12:25:58Z</time>
      </trkpt>
      <trkpt lat="43.28457" lon="0.08047">
        <ele>270</ele>
        <time>2020-05-18T12:26:06Z</time>
      </trkpt>
      <trkpt lat="43.28467" lon="0.08043">
        <ele>270</ele>
        <time>2020-05-18T12:26:13Z</time>
      </trkpt>
      <trkpt lat="43.28477" lon="0.0804">
        <ele>270</ele>
        <time>2020-05-18T12:26:21Z</time>
      </trkpt>
      <trkpt lat="43.28487" lon="0.08035">
        <ele>270</ele>
        <time>2020-05-18T12:26:29Z</time>
      </trkpt>
      <trkpt lat="43.28518" lon="0.0803">
        <ele>271</ele>
        <time>2020-05-18T12:26:54Z</time>
      </trkpt>
      <trkpt lat="43.28535" lon="0.08025">
        <ele>271</ele>
        <time>2020-05-18T12:27:07Z</time>
      </trkpt>
      <trkpt lat="43.28556" lon="0.08021">
        <ele>271</ele>
        <time>2020-05-18T12:27:24Z</time>
      </trkpt>
      <trkpt lat="43.28577" lon="0.08014">
        <ele>271</ele>
        <time>2020-05-18T12:27:39Z</time>
      </trkpt>
      <trkpt lat="43.28583" lon="0.08015">
        <ele>271</ele>
        <time>2020-05-18T12:27:43Z</time>
      </trkpt>
      <trkpt lat="43.28593" lon="0.08012">
        <ele>271</ele>
        <time>2020-05-18T12:27:53Z</time>
      </trkpt>
      <trkpt lat="43.28598" lon="0.08014">
        <ele>271</ele>
        <time>2020-05-18T12:27:58Z</time>
      </trkpt>
      <trkpt lat="43.2861" lon="0.08014">
        <ele>271</ele>
        <time>2020-05-18T12:28:07Z</time>
      </trkpt>
      <trkpt lat="43.28608" lon="0.08022">
        <ele>271</ele>
        <time>2020-05-18T12:28:13Z</time>
      </trkpt>
      <trkpt lat="43.28609" lon="0.08032">
        <ele>270</ele>
        <time>2020-05-18T12:28:28Z</time>
      </trkpt>
      <trkpt lat="43.28615" lon="0.08045">
        <ele>270</ele>
        <time>2020-05-18T12:28:40Z</time>
      </trkpt>
      <trkpt lat="43.2862" lon="0.0805">
        <ele>270</ele>
        <time>2020-05-18T12:28:47Z</time>
      </trkpt>
      <trkpt lat="43.28642" lon="0.08079">
        <ele>269</ele>
        <time>2020-05-18T12:29:11Z</time>
      </trkpt>
      <trkpt lat="43.28651" lon="0.081">
        <ele>269</ele>
        <time>2020-05-18T12:29:27Z</time>
      </trkpt>
      <trkpt lat="43.28677" lon="0.08138">
        <ele>269</ele>
        <time>2020-05-18T12:30:00Z</time>
      </trkpt>
      <trkpt lat="43.28686" lon="0.08151">
        <ele>269</ele>
        <time>2020-05-18T12:30:13Z</time>
      </trkpt>
      <trkpt lat="43.28693" lon="0.08151">
        <ele>269</ele>
        <time>2020-05-18T12:30:20Z</time>
      </trkpt>
      <trkpt lat="43.28699" lon="0.08154">
        <ele>269</ele>
        <time>2020-05-18T12:30:28Z</time>
      </trkpt>
      <trkpt lat="43.28711" lon="0.08152">
        <ele>268</ele>
        <time>2020-05-18T12:30:37Z</time>
      </trkpt>
      <trkpt lat="43.28716" lon="0.08154">
        <ele>268</ele>
        <time>2020-05-18T12:30:41Z</time>
      </trkpt>
      <trkpt lat="43.28723" lon="0.08154">
        <ele>268</ele>
        <time>2020-05-18T12:30:47Z</time>
      </trkpt>
      <trkpt lat="43.28727" lon="0.0815">
        <ele>269</ele>
        <time>2020-05-18T12:30:52Z</time>
      </trkpt>
      <trkpt lat="43.28757" lon="0.0815">
        <ele>269</ele>
        <time>2020-05-18T12:31:16Z</time>
      </trkpt>
      <trkpt lat="43.28794" lon="0.08135">
        <ele>269</ele>
        <time>2020-05-18T12:31:48Z</time>
      </trkpt>
      <trkpt lat="43.28799" lon="0.08133">
        <ele>269</ele>
        <time>2020-05-18T12:31:54Z</time>
      </trkpt>
      <trkpt lat="43.28805" lon="0.08133">
        <ele>269</ele>
        <time>2020-05-18T12:31:59Z</time>
      </trkpt>
      <trkpt lat="43.28817" lon="0.0813">
        <ele>269</ele>
        <time>2020-05-18T12:32:08Z</time>
      </trkpt>
      <trkpt lat="43.2883" lon="0.0813">
        <ele>269</ele>
        <time>2020-05-18T12:32:20Z</time>
      </trkpt>
      <trkpt lat="43.28837" lon="0.08126">
        <ele>269</ele>
        <time>2020-05-18T12:32:24Z</time>
      </trkpt>
      <trkpt lat="43.28853" lon="0.08126">
        <ele>269</ele>
        <time>2020-05-18T12:32:39Z</time>
      </trkpt>
      <trkpt lat="43.28871" lon="0.08115">
        <ele>269</ele>
        <time>2020-05-18T12:32:55Z</time>
      </trkpt>
      <trkpt lat="43.28875" lon="0.08111">
        <ele>269</ele>
        <time>2020-05-18T12:33:00Z</time>
      </trkpt>
      <trkpt lat="43.28878" lon="0.08111">
        <ele>269</ele>
        <time>2020-05-18T12:33:27Z</time>
      </trkpt>
      <trkpt lat="43.28875" lon="0.08114">
        <ele>269</ele>
        <time>2020-05-18T12:34:10Z</time>
      </trkpt>
      <trkpt lat="43.2887" lon="0.0811">
        <ele>269</ele>
        <time>2020-05-18T12:34:15Z</time>
      </trkpt>
      <trkpt lat="43.28868" lon="0.08104">
        <ele>269</ele>
        <time>2020-05-18T12:34:20Z</time>
      </trkpt>
      <trkpt lat="43.28864" lon="0.08088">
        <ele>269</ele>
        <time>2020-05-18T12:34:29Z</time>
      </trkpt>
      <trkpt lat="43.28864" lon="0.08076">
        <ele>269</ele>
        <time>2020-05-18T12:34:36Z</time>
      </trkpt>
      <trkpt lat="43.28859" lon="0.0806">
        <ele>269</ele>
        <time>2020-05-18T12:34:46Z</time>
      </trkpt>
      <trkpt lat="43.28856" lon="0.08053">
        <ele>269</ele>
        <time>2020-05-18T12:34:50Z</time>
      </trkpt>
      <trkpt lat="43.28856" lon="0.08045">
        <ele>269</ele>
        <time>2020-05-18T12:34:56Z</time>
      </trkpt>
      <trkpt lat="43.28856" lon="0.08034">
        <ele>269</ele>
        <time>2020-05-18T12:35:05Z</time>
      </trkpt>
      <trkpt lat="43.28857" lon="0.08018">
        <ele>269</ele>
        <time>2020-05-18T12:35:18Z</time>
      </trkpt>
      <trkpt lat="43.28852" lon="0.08012">
        <ele>269</ele>
        <time>2020-05-18T12:35:30Z</time>
      </trkpt>
      <trkpt lat="43.2886" lon="0.08011">
        <ele>269</ele>
        <time>2020-05-18T12:35:40Z</time>
      </trkpt>
      <trkpt lat="43.2887" lon="0.08014">
        <ele>269</ele>
        <time>2020-05-18T12:36:05Z</time>
      </trkpt>
      <trkpt lat="43.28874" lon="0.08011">
        <ele>269</ele>
        <time>2020-05-18T12:36:10Z</time>
      </trkpt>
      <trkpt lat="43.28879" lon="0.0801">
        <ele>269</ele>
        <time>2020-05-18T12:36:15Z</time>
      </trkpt>
      <trkpt lat="43.28912" lon="0.08012">
        <ele>269</ele>
        <time>2020-05-18T12:36:43Z</time>
      </trkpt>
      <trkpt lat="43.28919" lon="0.0801">
        <ele>269</ele>
        <time>2020-05-18T12:36:48Z</time>
      </trkpt>
      <trkpt lat="43.28923" lon="0.08011">
        <ele>269</ele>
        <time>2020-05-18T12:36:52Z</time>
      </trkpt>
      <trkpt lat="43.28933" lon="0.08007">
        <ele>270</ele>
        <time>2020-05-18T12:37:02Z</time>
      </trkpt>
      <trkpt lat="43.28974" lon="0.07992">
        <ele>270</ele>
        <time>2020-05-18T12:37:34Z</time>
      </trkpt>
      <trkpt lat="43.28978" lon="0.07994">
        <ele>270</ele>
        <time>2020-05-18T12:37:37Z</time>
      </trkpt>
      <trkpt lat="43.28985" lon="0.07998">
        <ele>270</ele>
        <time>2020-05-18T12:37:48Z</time>
      </trkpt>
      <trkpt lat="43.28993" lon="0.08002">
        <ele>270</ele>
        <time>2020-05-18T12:37:54Z</time>
      </trkpt>
      <trkpt lat="43.28997" lon="0.08002">
        <ele>270</ele>
        <time>2020-05-18T12:37:59Z</time>
      </trkpt>
      <trkpt lat="43.28997" lon="0.07995">
        <ele>270</ele>
        <time>2020-05-18T12:38:19Z</time>
      </trkpt>
      <trkpt lat="43.29003" lon="0.07999">
        <ele>270</ele>
        <time>2020-05-18T12:38:35Z</time>
      </trkpt>
      <trkpt lat="43.29005" lon="0.08004">
        <ele>270</ele>
        <time>2020-05-18T12:38:39Z</time>
      </trkpt>
      <trkpt lat="43.29009" lon="0.08024">
        <ele>270</ele>
        <time>2020-05-18T12:38:50Z</time>
      </trkpt>
      <trkpt lat="43.29009" lon="0.08045">
        <ele>271</ele>
        <time>2020-05-18T12:39:03Z</time>
      </trkpt>
      <trkpt lat="43.29011" lon="0.08079">
        <ele>271</ele>
        <time>2020-05-18T12:39:23Z</time>
      </trkpt>
      <trkpt lat="43.29015" lon="0.08092">
        <ele>271</ele>
        <time>2020-05-18T12:39:30Z</time>
      </trkpt>
      <trkpt lat="43.29015" lon="0.08098">
        <ele>271</ele>
        <time>2020-05-18T12:39:34Z</time>
      </trkpt>
      <trkpt lat="43.29015" lon="0.08105">
        <ele>272</ele>
        <time>2020-05-18T12:39:38Z</time>
      </trkpt>
      <trkpt lat="43.29015" lon="0.08111">
        <ele>272</ele>
        <time>2020-05-18T12:39:42Z</time>
      </trkpt>
      <trkpt lat="43.29017" lon="0.08128">
        <ele>272</ele>
        <time>2020-05-18T12:39:54Z</time>
      </trkpt>
      <trkpt lat="43.29016" lon="0.08156">
        <ele>272</ele>
        <time>2020-05-18T12:40:11Z</time>
      </trkpt>
      <trkpt lat="43.29018" lon="0.08163">
        <ele>272</ele>
        <time>2020-05-18T12:40:15Z</time>
      </trkpt>
      <trkpt lat="43.29013" lon="0.08165">
        <ele>272</ele>
        <time>2020-05-18T12:40:30Z</time>
      </trkpt>
      <trkpt lat="43.29008" lon="0.08163">
        <ele>271</ele>
        <time>2020-05-18T12:40:37Z</time>
      </trkpt>
      <trkpt lat="43.29004" lon="0.08166">
        <ele>270</ele>
        <time>2020-05-18T12:40:41Z</time>
      </trkpt>
      <trkpt lat="43.28999" lon="0.08168">
        <ele>270</ele>
        <time>2020-05-18T12:40:45Z</time>
      </trkpt>
      <trkpt lat="43.28983" lon="0.08175">
        <ele>270</ele>
        <time>2020-05-18T12:40:58Z</time>
      </trkpt>
      <trkpt lat="43.28954" lon="0.08174">
        <ele>271</ele>
        <time>2020-05-18T12:41:26Z</time>
      </trkpt>
      <trkpt lat="43.28948" lon="0.08177">
        <ele>271</ele>
        <time>2020-05-18T12:41:31Z</time>
      </trkpt>
      <trkpt lat="43.2894" lon="0.08177">
        <ele>271</ele>
        <time>2020-05-18T12:41:39Z</time>
      </trkpt>
      <trkpt lat="43.28935" lon="0.08178">
        <ele>271</ele>
        <time>2020-05-18T12:41:42Z</time>
      </trkpt>
      <trkpt lat="43.28924" lon="0.08177">
        <ele>271</ele>
        <time>2020-05-18T12:41:50Z</time>
      </trkpt>
      <trkpt lat="43.28913" lon="0.0818">
        <ele>272</ele>
        <time>2020-05-18T12:41:59Z</time>
      </trkpt>
      <trkpt lat="43.289" lon="0.08178">
        <ele>272</ele>
        <time>2020-05-18T12:42:08Z</time>
      </trkpt>
      <trkpt lat="43.28896" lon="0.08175">
        <ele>272</ele>
        <time>2020-05-18T12:42:12Z</time>
      </trkpt>
      <trkpt lat="43.28876" lon="0.08174">
        <ele>270</ele>
        <time>2020-05-18T12:42:29Z</time>
      </trkpt>
      <trkpt lat="43.28848" lon="0.0818">
        <ele>270</ele>
        <time>2020-05-18T12:42:51Z</time>
      </trkpt>
      <trkpt lat="43.28842" lon="0.08178">
        <ele>270</ele>
        <time>2020-05-18T12:42:54Z</time>
      </trkpt>
      <trkpt lat="43.28801" lon="0.0818">
        <ele>269</ele>
        <time>2020-05-18T12:43:27Z</time>
      </trkpt>
      <trkpt lat="43.28795" lon="0.08183">
        <ele>269</ele>
        <time>2020-05-18T12:43:31Z</time>
      </trkpt>
      <trkpt lat="43.28791" lon="0.08187">
        <ele>269</ele>
        <time>2020-05-18T12:43:35Z</time>
      </trkpt>
      <trkpt lat="43.2879" lon="0.08199">
        <ele>269</ele>
        <time>2020-05-18T12:43:43Z</time>
      </trkpt>
      <trkpt lat="43.28791" lon="0.08205">
        <ele>268</ele>
        <time>2020-05-18T12:43:48Z</time>
      </trkpt>
      <trkpt lat="43.28798" lon="0.08216">
        <ele>268</ele>
        <time>2020-05-18T12:43:57Z</time>
      </trkpt>
      <trkpt lat="43.28809" lon="0.08241">
        <ele>268</ele>
        <time>2020-05-18T12:44:14Z</time>
      </trkpt>
      <trkpt lat="43.28813" lon="0.08246">
        <ele>268</ele>
        <time>2020-05-18T12:44:18Z</time>
      </trkpt>
      <trkpt lat="43.28825" lon="0.08282">
        <ele>268</ele>
        <time>2020-05-18T12:44:40Z</time>
      </trkpt>
      <trkpt lat="43.28825" lon="0.08297">
        <ele>268</ele>
        <time>2020-05-18T12:44:48Z</time>
      </trkpt>
      <trkpt lat="43.28831" lon="0.08344">
        <ele>269</ele>
        <time>2020-05-18T12:45:15Z</time>
      </trkpt>
      <trkpt lat="43.2883" lon="0.08351">
        <ele>269</ele>
        <time>2020-05-18T12:45:19Z</time>
      </trkpt>
      <trkpt lat="43.28828" lon="0.08358">
        <ele>269</ele>
        <time>2020-05-18T12:45:24Z</time>
      </trkpt>
      <trkpt lat="43.28827" lon="0.08379">
        <ele>269</ele>
        <time>2020-05-18T12:45:40Z</time>
      </trkpt>
      <trkpt lat="43.28825" lon="0.08386">
        <ele>269</ele>
        <time>2020-05-18T12:46:16Z</time>
      </trkpt>
      <trkpt lat="43.28822" lon="0.08392">
        <ele>269</ele>
        <time>2020-05-18T12:46:20Z</time>
      </trkpt>
      <trkpt lat="43.28822" lon="0.084">
        <ele>269</ele>
        <time>2020-05-18T12:46:25Z</time>
      </trkpt>
      <trkpt lat="43.28824" lon="0.08407">
        <ele>269</ele>
        <time>2020-05-18T12:46:29Z</time>
      </trkpt>
      <trkpt lat="43.28824" lon="0.08414">
        <ele>269</ele>
        <time>2020-05-18T12:46:32Z</time>
      </trkpt>
      <trkpt lat="43.2882" lon="0.08428">
        <ele>269</ele>
        <time>2020-05-18T12:47:36Z</time>
      </trkpt>
      <trkpt lat="43.28818" lon="0.08474">
        <ele>269</ele>
        <time>2020-05-18T12:48:07Z</time>
      </trkpt>
      <trkpt lat="43.28818" lon="0.08489">
        <ele>269</ele>
        <time>2020-05-18T12:48:17Z</time>
      </trkpt>
      <trkpt lat="43.28809" lon="0.0852">
        <ele>269</ele>
        <time>2020-05-18T12:48:35Z</time>
      </trkpt>
      <trkpt lat="43.28809" lon="0.08527">
        <ele>269</ele>
        <time>2020-05-18T12:48:39Z</time>
      </trkpt>
      <trkpt lat="43.28808" lon="0.08533">
        <ele>269</ele>
        <time>2020-05-18T12:48:43Z</time>
      </trkpt>
      <trkpt lat="43.28785" lon="0.08581">
        <ele>270</ele>
        <time>2020-05-18T12:49:13Z</time>
      </trkpt>
      <trkpt lat="43.28782" lon="0.08588">
        <ele>270</ele>
        <time>2020-05-18T12:49:24Z</time>
      </trkpt>
      <trkpt lat="43.28784" lon="0.08602">
        <ele>271</ele>
        <time>2020-05-18T12:49:32Z</time>
      </trkpt>
      <trkpt lat="43.28783" lon="0.08607">
        <ele>271</ele>
        <time>2020-05-18T12:49:36Z</time>
      </trkpt>
      <trkpt lat="43.28765" lon="0.08636">
        <ele>272</ele>
        <time>2020-05-18T12:49:59Z</time>
      </trkpt>
      <trkpt lat="43.28761" lon="0.0865">
        <ele>271</ele>
        <time>2020-05-18T12:50:08Z</time>
      </trkpt>
      <trkpt lat="43.28755" lon="0.0867">
        <ele>272</ele>
        <time>2020-05-18T12:50:20Z</time>
      </trkpt>
      <trkpt lat="43.28744" lon="0.08721">
        <ele>272</ele>
        <time>2020-05-18T12:50:54Z</time>
      </trkpt>
      <trkpt lat="43.28743" lon="0.08734">
        <ele>272</ele>
        <time>2020-05-18T12:51:03Z</time>
      </trkpt>
      <trkpt lat="43.2874" lon="0.0874">
        <ele>273</ele>
        <time>2020-05-18T12:51:11Z</time>
      </trkpt>
      <trkpt lat="43.2874" lon="0.0875">
        <ele>273</ele>
        <time>2020-05-18T12:52:05Z</time>
      </trkpt>
      <trkpt lat="43.28741" lon="0.08756">
        <ele>272</ele>
        <time>2020-05-18T12:52:10Z</time>
      </trkpt>
      <trkpt lat="43.2874" lon="0.08763">
        <ele>272</ele>
        <time>2020-05-18T12:52:14Z</time>
      </trkpt>
      <trkpt lat="43.28738" lon="0.08769">
        <ele>272</ele>
        <time>2020-05-18T12:52:19Z</time>
      </trkpt>
      <trkpt lat="43.28734" lon="0.08775">
        <ele>272</ele>
        <time>2020-05-18T12:52:24Z</time>
      </trkpt>
      <trkpt lat="43.28729" lon="0.08778">
        <ele>272</ele>
        <time>2020-05-18T12:52:29Z</time>
      </trkpt>
      <trkpt lat="43.28712" lon="0.08786">
        <ele>272</ele>
        <time>2020-05-18T12:52:43Z</time>
      </trkpt>
      <trkpt lat="43.28676" lon="0.08822">
        <ele>273</ele>
        <time>2020-05-18T12:53:18Z</time>
      </trkpt>
      <trkpt lat="43.28636" lon="0.08849">
        <ele>272</ele>
        <time>2020-05-18T12:53:51Z</time>
      </trkpt>
      <trkpt lat="43.28632" lon="0.08852">
        <ele>272</ele>
        <time>2020-05-18T12:53:55Z</time>
      </trkpt>
      <trkpt lat="43.28623" lon="0.08861">
        <ele>273</ele>
        <time>2020-05-18T12:54:02Z</time>
      </trkpt>
      <trkpt lat="43.28619" lon="0.08864">
        <ele>273</ele>
        <time>2020-05-18T12:54:06Z</time>
      </trkpt>
      <trkpt lat="43.28606" lon="0.08876">
        <ele>273</ele>
        <time>2020-05-18T12:54:18Z</time>
      </trkpt>
      <trkpt lat="43.28565" lon="0.08891">
        <ele>273</ele>
        <time>2020-05-18T12:54:51Z</time>
      </trkpt>
      <trkpt lat="43.28553" lon="0.08893">
        <ele>273</ele>
        <time>2020-05-18T12:55:01Z</time>
      </trkpt>
      <trkpt lat="43.28549" lon="0.08896">
        <ele>273</ele>
        <time>2020-05-18T12:55:05Z</time>
      </trkpt>
      <trkpt lat="43.28513" lon="0.08905">
        <ele>273</ele>
        <time>2020-05-18T12:55:38Z</time>
      </trkpt>
      <trkpt lat="43.28503" lon="0.08914">
        <ele>274</ele>
        <time>2020-05-18T12:55:47Z</time>
      </trkpt>
      <trkpt lat="43.28494" lon="0.0892">
        <ele>273</ele>
        <time>2020-05-18T12:55:55Z</time>
      </trkpt>
      <trkpt lat="43.2849" lon="0.08924">
        <ele>273</ele>
        <time>2020-05-18T12:55:59Z</time>
      </trkpt>
      <trkpt lat="43.28479" lon="0.08928">
        <ele>274</ele>
        <time>2020-05-18T12:56:08Z</time>
      </trkpt>
      <trkpt lat="43.28471" lon="0.08941">
        <ele>274</ele>
        <time>2020-05-18T12:56:17Z</time>
      </trkpt>
      <trkpt lat="43.28465" lon="0.08944">
        <ele>274</ele>
        <time>2020-05-18T12:56:22Z</time>
      </trkpt>
      <trkpt lat="43.28444" lon="0.0896">
        <ele>274</ele>
        <time>2020-05-18T12:56:42Z</time>
      </trkpt>
      <trkpt lat="43.28417" lon="0.08987">
        <ele>275</ele>
        <time>2020-05-18T12:57:06Z</time>
      </trkpt>
      <trkpt lat="43.28408" lon="0.08995">
        <ele>275</ele>
        <time>2020-05-18T12:57:14Z</time>
      </trkpt>
      <trkpt lat="43.28403" lon="0.08998">
        <ele>275</ele>
        <time>2020-05-18T12:57:17Z</time>
      </trkpt>
      <trkpt lat="43.28363" lon="0.0903">
        <ele>275</ele>
        <time>2020-05-18T12:57:54Z</time>
      </trkpt>
      <trkpt lat="43.28354" lon="0.09039">
        <ele>275</ele>
        <time>2020-05-18T12:58:02Z</time>
      </trkpt>
      <trkpt lat="43.28346" lon="0.09037">
        <ele>275</ele>
        <time>2020-05-18T12:58:39Z</time>
      </trkpt>
      <trkpt lat="43.28342" lon="0.09049">
        <ele>275</ele>
        <time>2020-05-18T12:58:51Z</time>
      </trkpt>
      <trkpt lat="43.28334" lon="0.09059">
        <ele>275</ele>
        <time>2020-05-18T12:59:02Z</time>
      </trkpt>
      <trkpt lat="43.28329" lon="0.09062">
        <ele>275</ele>
        <time>2020-05-18T12:59:07Z</time>
      </trkpt>
      <trkpt lat="43.28324" lon="0.09066">
        <ele>275</ele>
        <time>2020-05-18T12:59:12Z</time>
      </trkpt>
      <trkpt lat="43.28313" lon="0.09072">
        <ele>275</ele>
        <time>2020-05-18T12:59:22Z</time>
      </trkpt>
      <trkpt lat="43.28289" lon="0.09091">
        <ele>275</ele>
        <time>2020-05-18T12:59:42Z</time>
      </trkpt>
      <trkpt lat="43.28259" lon="0.09096">
        <ele>276</ele>
        <time>2020-05-18T13:00:04Z</time>
      </trkpt>
      <trkpt lat="43.28255" lon="0.09094">
        <ele>276</ele>
        <time>2020-05-18T13:00:08Z</time>
      </trkpt>
      <trkpt lat="43.2824" lon="0.09094">
        <ele>276</ele>
        <time>2020-05-18T13:00:19Z</time>
      </trkpt>
      <trkpt lat="43.28236" lon="0.09092">
        <ele>276</ele>
        <time>2020-05-18T13:00:22Z</time>
      </trkpt>
      <trkpt lat="43.28226" lon="0.09091">
        <ele>276</ele>
        <time>2020-05-18T13:00:30Z</time>
      </trkpt>
      <trkpt lat="43.28221" lon="0.09092">
        <ele>276</ele>
        <time>2020-05-18T13:00:34Z</time>
      </trkpt>
      <trkpt lat="43.28196" lon="0.09089">
        <ele>276</ele>
        <time>2020-05-18T13:00:54Z</time>
      </trkpt>
      <trkpt lat="43.28191" lon="0.09089">
        <ele>276</ele>
        <time>2020-05-18T13:00:58Z</time>
      </trkpt>
      <trkpt lat="43.28177" lon="0.09088">
        <ele>276</ele>
        <time>2020-05-18T13:01:09Z</time>
      </trkpt>
      <trkpt lat="43.28135" lon="0.09092">
        <ele>277</ele>
        <time>2020-05-18T13:01:44Z</time>
      </trkpt>
      <trkpt lat="43.28122" lon="0.09097">
        <ele>277</ele>
        <time>2020-05-18T13:01:53Z</time>
      </trkpt>
      <trkpt lat="43.28075" lon="0.09099">
        <ele>277</ele>
        <time>2020-05-18T13:02:26Z</time>
      </trkpt>
      <trkpt lat="43.28042" lon="0.09099">
        <ele>277</ele>
        <time>2020-05-18T13:02:56Z</time>
      </trkpt>
      <trkpt lat="43.28038" lon="0.09099">
        <ele>277</ele>
        <time>2020-05-18T13:03:07Z</time>
      </trkpt>
      <trkpt lat="43.28033" lon="0.091">
        <ele>278</ele>
        <time>2020-05-18T13:03:16Z</time>
      </trkpt>
      <trkpt lat="43.27997" lon="0.09103">
        <ele>277</ele>
        <time>2020-05-18T13:03:49Z</time>
      </trkpt>
      <trkpt lat="43.27976" lon="0.09109">
        <ele>278</ele>
        <time>2020-05-18T13:04:07Z</time>
      </trkpt>
      <trkpt lat="43.27967" lon="0.09118">
        <ele>278</ele>
        <time>2020-05-18T13:04:15Z</time>
      </trkpt>
      <trkpt lat="43.27961" lon="0.09119">
        <ele>278</ele>
        <time>2020-05-18T13:04:19Z</time>
      </trkpt>
      <trkpt lat="43.27955" lon="0.09121">
        <ele>278</ele>
        <time>2020-05-18T13:04:24Z</time>
      </trkpt>
      <trkpt lat="43.2795" lon="0.09118">
        <ele>278</ele>
        <time>2020-05-18T13:04:33Z</time>
      </trkpt>
      <trkpt lat="43.27943" lon="0.09121">
        <ele>278</ele>
        <time>2020-05-18T13:05:21Z</time>
      </trkpt>
      <trkpt lat="43.27911" lon="0.09131">
        <ele>278</ele>
        <time>2020-05-18T13:05:46Z</time>
      </trkpt>
      <trkpt lat="43.27905" lon="0.09131">
        <ele>278</ele>
        <time>2020-05-18T13:05:51Z</time>
      </trkpt>
      <trkpt lat="43.27894" lon="0.09135">
        <ele>279</ele>
        <time>2020-05-18T13:05:59Z</time>
      </trkpt>
      <trkpt lat="43.27885" lon="0.09143">
        <ele>279</ele>
        <time>2020-05-18T13:06:07Z</time>
      </trkpt>
      <trkpt lat="43.27881" lon="0.09148">
        <ele>279</ele>
        <time>2020-05-18T13:06:12Z</time>
      </trkpt>
      <trkpt lat="43.27864" lon="0.09155">
        <ele>279</ele>
        <time>2020-05-18T13:06:27Z</time>
      </trkpt>
      <trkpt lat="43.27851" lon="0.09167">
        <ele>279</ele>
        <time>2020-05-18T13:06:38Z</time>
      </trkpt>
      <trkpt lat="43.27845" lon="0.09169">
        <ele>279</ele>
        <time>2020-05-18T13:06:43Z</time>
      </trkpt>
      <trkpt lat="43.2784" lon="0.09173">
        <ele>279</ele>
        <time>2020-05-18T13:06:48Z</time>
      </trkpt>
      <trkpt lat="43.27835" lon="0.09175">
        <ele>279</ele>
        <time>2020-05-18T13:06:52Z</time>
      </trkpt>
      <trkpt lat="43.27826" lon="0.09185">
        <ele>279</ele>
        <time>2020-05-18T13:07:01Z</time>
      </trkpt>
      <trkpt lat="43.27824" lon="0.0919">
        <ele>279</ele>
        <time>2020-05-18T13:07:10Z</time>
      </trkpt>
      <trkpt lat="43.27816" lon="0.092">
        <ele>279</ele>
        <time>2020-05-18T13:07:25Z</time>
      </trkpt>
      <trkpt lat="43.27811" lon="0.09201">
        <ele>279</ele>
        <time>2020-05-18T13:07:29Z</time>
      </trkpt>
      <trkpt lat="43.278" lon="0.09209">
        <ele>280</ele>
        <time>2020-05-18T13:07:40Z</time>
      </trkpt>
      <trkpt lat="43.27794" lon="0.0921">
        <ele>279</ele>
        <time>2020-05-18T13:07:43Z</time>
      </trkpt>
      <trkpt lat="43.27788" lon="0.09212">
        <ele>280</ele>
        <time>2020-05-18T13:07:48Z</time>
      </trkpt>
      <trkpt lat="43.27782" lon="0.09217">
        <ele>280</ele>
        <time>2020-05-18T13:08:15Z</time>
      </trkpt>
      <trkpt lat="43.27781" lon="0.09181">
        <ele>280</ele>
        <time>2020-05-18T13:08:35Z</time>
      </trkpt>
      <trkpt lat="43.27785" lon="0.09165">
        <ele>280</ele>
        <time>2020-05-18T13:08:45Z</time>
      </trkpt>
      <trkpt lat="43.27784" lon="0.09154">
        <ele>280</ele>
        <time>2020-05-18T13:08:53Z</time>
      </trkpt>
      <trkpt lat="43.27787" lon="0.09145">
        <ele>280</ele>
        <time>2020-05-18T13:08:59Z</time>
      </trkpt>
      <trkpt lat="43.2779" lon="0.09137">
        <ele>280</ele>
        <time>2020-05-18T13:09:03Z</time>
      </trkpt>
      <trkpt lat="43.27789" lon="0.09118">
        <ele>280</ele>
        <time>2020-05-18T13:09:15Z</time>
      </trkpt>
      <trkpt lat="43.27795" lon="0.09104">
        <ele>280</ele>
        <time>2020-05-18T13:09:25Z</time>
      </trkpt>
      <trkpt lat="43.27798" lon="0.09087">
        <ele>280</ele>
        <time>2020-05-18T13:09:35Z</time>
      </trkpt>
      <trkpt lat="43.27801" lon="0.09079">
        <ele>280</ele>
        <time>2020-05-18T13:09:40Z</time>
      </trkpt>
      <trkpt lat="43.278" lon="0.0907">
        <ele>280</ele>
        <time>2020-05-18T13:09:45Z</time>
      </trkpt>
      <trkpt lat="43.27805" lon="0.09056">
        <ele>280</ele>
        <time>2020-05-18T13:09:55Z</time>
      </trkpt>
      <trkpt lat="43.27806" lon="0.09036">
        <ele>280</ele>
        <time>2020-05-18T13:10:05Z</time>
      </trkpt>
      <trkpt lat="43.27813" lon="0.09016">
        <ele>279</ele>
        <time>2020-05-18T13:10:18Z</time>
      </trkpt>
      <trkpt lat="43.27812" lon="0.09">
        <ele>279</ele>
        <time>2020-05-18T13:10:26Z</time>
      </trkpt>
      <trkpt lat="43.27814" lon="0.08993">
        <ele>279</ele>
        <time>2020-05-18T13:10:31Z</time>
      </trkpt>
      <trkpt lat="43.27815" lon="0.08985">
        <ele>279</ele>
        <time>2020-05-18T13:10:35Z</time>
      </trkpt>
      <trkpt lat="43.2782" lon="0.08971">
        <ele>279</ele>
        <time>2020-05-18T13:10:44Z</time>
      </trkpt>
      <trkpt lat="43.27821" lon="0.08964">
        <ele>280</ele>
        <time>2020-05-18T13:10:48Z</time>
      </trkpt>
      <trkpt lat="43.27821" lon="0.08957">
        <ele>280</ele>
        <time>2020-05-18T13:10:51Z</time>
      </trkpt>
      <trkpt lat="43.27823" lon="0.08949">
        <ele>279</ele>
        <time>2020-05-18T13:10:57Z</time>
      </trkpt>
      <trkpt lat="43.27821" lon="0.08936">
        <ele>279</ele>
        <time>2020-05-18T13:11:06Z</time>
      </trkpt>
      <trkpt lat="43.27818" lon="0.0893">
        <ele>279</ele>
        <time>2020-05-18T13:11:11Z</time>
      </trkpt>
      <trkpt lat="43.27809" lon="0.08929">
        <ele>279</ele>
        <time>2020-05-18T13:12:33Z</time>
      </trkpt>
      <trkpt lat="43.27805" lon="0.08928">
        <ele>279</ele>
        <time>2020-05-18T13:12:38Z</time>
      </trkpt>
      <trkpt lat="43.278" lon="0.08927">
        <ele>279</ele>
        <time>2020-05-18T13:12:43Z</time>
      </trkpt>
      <trkpt lat="43.27795" lon="0.08924">
        <ele>279</ele>
        <time>2020-05-18T13:12:47Z</time>
      </trkpt>
      <trkpt lat="43.27791" lon="0.08919">
        <ele>279</ele>
        <time>2020-05-18T13:12:51Z</time>
      </trkpt>
      <trkpt lat="43.2779" lon="0.08912">
        <ele>278</ele>
        <time>2020-05-18T13:12:55Z</time>
      </trkpt>
      <trkpt lat="43.27793" lon="0.08866">
        <ele>278</ele>
        <time>2020-05-18T13:13:21Z</time>
      </trkpt>
      <trkpt lat="43.27797" lon="0.08844">
        <ele>279</ele>
        <time>2020-05-18T13:13:34Z</time>
      </trkpt>
      <trkpt lat="43.27803" lon="0.08833">
        <ele>279</ele>
        <time>2020-05-18T13:13:42Z</time>
      </trkpt>
      <trkpt lat="43.27805" lon="0.08826">
        <ele>279</ele>
        <time>2020-05-18T13:13:46Z</time>
      </trkpt>
      <trkpt lat="43.27808" lon="0.088">
        <ele>279</ele>
        <time>2020-05-18T13:14:13Z</time>
      </trkpt>
      <trkpt lat="43.27811" lon="0.08754">
        <ele>279</ele>
        <time>2020-05-18T13:14:41Z</time>
      </trkpt>
      <trkpt lat="43.27809" lon="0.08739">
        <ele>278</ele>
        <time>2020-05-18T13:14:51Z</time>
      </trkpt>
      <trkpt lat="43.27804" lon="0.08735">
        <ele>278</ele>
        <time>2020-05-18T13:14:58Z</time>
      </trkpt>
      <trkpt lat="43.27793" lon="0.08734">
        <ele>278</ele>
        <time>2020-05-18T13:15:07Z</time>
      </trkpt>
      <trkpt lat="43.27782" lon="0.0873">
        <ele>278</ele>
        <time>2020-05-18T13:15:16Z</time>
      </trkpt>
      <trkpt lat="43.27778" lon="0.08731">
        <ele>278</ele>
        <time>2020-05-18T13:15:20Z</time>
      </trkpt>
      <trkpt lat="43.27772" lon="0.08728">
        <ele>278</ele>
        <time>2020-05-18T13:15:24Z</time>
      </trkpt>
      <trkpt lat="43.27765" lon="0.0872">
        <ele>279</ele>
        <time>2020-05-18T13:15:33Z</time>
      </trkpt>
      <trkpt lat="43.27762" lon="0.08714">
        <ele>278</ele>
        <time>2020-05-18T13:15:39Z</time>
      </trkpt>
      <trkpt lat="43.27758" lon="0.08723">
        <ele>277</ele>
        <time>2020-05-18T13:17:00Z</time>
      </trkpt>
      <trkpt lat="43.27746" lon="0.08725">
        <ele>278</ele>
        <time>2020-05-18T13:17:10Z</time>
      </trkpt>
      <trkpt lat="43.27736" lon="0.08723">
        <ele>278</ele>
        <time>2020-05-18T13:17:18Z</time>
      </trkpt>
      <trkpt lat="43.2773" lon="0.08724">
        <ele>278</ele>
        <time>2020-05-18T13:17:23Z</time>
      </trkpt>
      <trkpt lat="43.27725" lon="0.08719">
        <ele>278</ele>
        <time>2020-05-18T13:17:26Z</time>
      </trkpt>
      <trkpt lat="43.27723" lon="0.08712">
        <ele>278</ele>
        <time>2020-05-18T13:17:31Z</time>
      </trkpt>
      <trkpt lat="43.27722" lon="0.08695">
        <ele>278</ele>
        <time>2020-05-18T13:17:41Z</time>
      </trkpt>
      <trkpt lat="43.2772" lon="0.08689">
        <ele>278</ele>
        <time>2020-05-18T13:17:45Z</time>
      </trkpt>
      <trkpt lat="43.2772" lon="0.08682">
        <ele>278</ele>
        <time>2020-05-18T13:17:48Z</time>
      </trkpt>
      <trkpt lat="43.27727" lon="0.08627">
        <ele>278</ele>
        <time>2020-05-18T13:18:19Z</time>
      </trkpt>
      <trkpt lat="43.27729" lon="0.08619">
        <ele>278</ele>
        <time>2020-05-18T13:18:23Z</time>
      </trkpt>
      <trkpt lat="43.27731" lon="0.08603">
        <ele>278</ele>
        <time>2020-05-18T13:18:34Z</time>
      </trkpt>
      <trkpt lat="43.27733" lon="0.08596">
        <ele>278</ele>
        <time>2020-05-18T13:18:38Z</time>
      </trkpt>
      <trkpt lat="43.27734" lon="0.08588">
        <ele>278</ele>
        <time>2020-05-18T13:18:43Z</time>
      </trkpt>
      <trkpt lat="43.27733" lon="0.08581">
        <ele>278</ele>
        <time>2020-05-18T13:18:47Z</time>
      </trkpt>
      <trkpt lat="43.27733" lon="0.08575">
        <ele>278</ele>
        <time>2020-05-18T13:18:51Z</time>
      </trkpt>
      <trkpt lat="43.27731" lon="0.08567">
        <ele>278</ele>
        <time>2020-05-18T13:18:55Z</time>
      </trkpt>
      <trkpt lat="43.27727" lon="0.08555">
        <ele>278</ele>
        <time>2020-05-18T13:19:03Z</time>
      </trkpt>
      <trkpt lat="43.27719" lon="0.08546">
        <ele>278</ele>
        <time>2020-05-18T13:19:13Z</time>
      </trkpt>
      <trkpt lat="43.27712" lon="0.08533">
        <ele>278</ele>
        <time>2020-05-18T13:19:22Z</time>
      </trkpt>
      <trkpt lat="43.2771" lon="0.08528">
        <ele>278</ele>
        <time>2020-05-18T13:19:25Z</time>
      </trkpt>
      <trkpt lat="43.27707" lon="0.08523">
        <ele>278</ele>
        <time>2020-05-18T13:19:28Z</time>
      </trkpt>
      <trkpt lat="43.27707" lon="0.08516">
        <ele>278</ele>
        <time>2020-05-18T13:19:32Z</time>
      </trkpt>
      <trkpt lat="43.27708" lon="0.08509">
        <ele>278</ele>
        <time>2020-05-18T13:19:37Z</time>
      </trkpt>
      <trkpt lat="43.27708" lon="0.08502">
        <ele>278</ele>
        <time>2020-05-18T13:19:51Z</time>
      </trkpt>
      <trkpt lat="43.27706" lon="0.08497">
        <ele>279</ele>
        <time>2020-05-18T13:20:15Z</time>
      </trkpt>
      <trkpt lat="43.27698" lon="0.08484">
        <ele>279</ele>
        <time>2020-05-18T13:21:23Z</time>
      </trkpt>
      <trkpt lat="43.27678" lon="0.08476">
        <ele>279</ele>
        <time>2020-05-18T13:21:40Z</time>
      </trkpt>
      <trkpt lat="43.27668" lon="0.08479">
        <ele>279</ele>
        <time>2020-05-18T13:21:50Z</time>
      </trkpt>
      <trkpt lat="43.27663" lon="0.08481">
        <ele>279</ele>
        <time>2020-05-18T13:21:54Z</time>
      </trkpt>
      <trkpt lat="43.27659" lon="0.08485">
        <ele>278</ele>
        <time>2020-05-18T13:21:57Z</time>
      </trkpt>
      <trkpt lat="43.27656" lon="0.08491">
        <ele>278</ele>
        <time>2020-05-18T13:22:05Z</time>
      </trkpt>
      <trkpt lat="43.2765" lon="0.08492">
        <ele>278</ele>
        <time>2020-05-18T13:22:09Z</time>
      </trkpt>
      <trkpt lat="43.27637" lon="0.08497">
        <ele>279</ele>
        <time>2020-05-18T13:22:21Z</time>
      </trkpt>
      <trkpt lat="43.27632" lon="0.08502">
        <ele>279</ele>
        <time>2020-05-18T13:22:25Z</time>
      </trkpt>
      <trkpt lat="43.27629" lon="0.08505">
        <ele>279</ele>
        <time>2020-05-18T13:22:29Z</time>
      </trkpt>
      <trkpt lat="43.27613" lon="0.08518">
        <ele>279</ele>
        <time>2020-05-18T13:22:44Z</time>
      </trkpt>
      <trkpt lat="43.27572" lon="0.0852">
        <ele>279</ele>
        <time>2020-05-18T13:23:17Z</time>
      </trkpt>
      <trkpt lat="43.27568" lon="0.0852">
        <ele>279</ele>
        <time>2020-05-18T13:23:20Z</time>
      </trkpt>
      <trkpt lat="43.27559" lon="0.08518">
        <ele>279</ele>
        <time>2020-05-18T13:23:28Z</time>
      </trkpt>
      <trkpt lat="43.27547" lon="0.08519">
        <ele>279</ele>
        <time>2020-05-18T13:23:37Z</time>
      </trkpt>
      <trkpt lat="43.27534" lon="0.08519">
        <ele>279</ele>
        <time>2020-05-18T13:23:47Z</time>
      </trkpt>
      <trkpt lat="43.27526" lon="0.08522">
        <ele>279</ele>
        <time>2020-05-18T13:23:54Z</time>
      </trkpt>
      <trkpt lat="43.27508" lon="0.08522">
        <ele>279</ele>
        <time>2020-05-18T13:24:10Z</time>
      </trkpt>
      <trkpt lat="43.27502" lon="0.08523">
        <ele>280</ele>
        <time>2020-05-18T13:24:15Z</time>
      </trkpt>
      <trkpt lat="43.275" lon="0.08528">
        <ele>280</ele>
        <time>2020-05-18T13:24:23Z</time>
      </trkpt>
      <trkpt lat="43.27491" lon="0.0854">
        <ele>279</ele>
        <time>2020-05-18T13:24:39Z</time>
      </trkpt>
      <trkpt lat="43.27493" lon="0.08538">
        <ele>279</ele>
        <time>2020-05-18T13:25:04Z</time>
      </trkpt>
      <trkpt lat="43.27492" lon="0.0854">
        <ele>279</ele>
        <time>2020-05-18T13:25:20Z</time>
      </trkpt>
      <trkpt lat="43.2749" lon="0.08576">
        <ele>279</ele>
        <time>2020-05-18T13:25:44Z</time>
      </trkpt>
      <trkpt lat="43.27491" lon="0.08582">
        <ele>279</ele>
        <time>2020-05-18T13:25:49Z</time>
      </trkpt>
      <trkpt lat="43.27498" lon="0.08589">
        <ele>279</ele>
        <time>2020-05-18T13:25:59Z</time>
      </trkpt>
      <trkpt lat="43.27528" lon="0.08589">
        <ele>279</ele>
        <time>2020-05-18T13:26:24Z</time>
      </trkpt>
      <trkpt lat="43.27537" lon="0.08593">
        <ele>279</ele>
        <time>2020-05-18T13:26:31Z</time>
      </trkpt>
      <trkpt lat="43.27564" lon="0.08593">
        <ele>278</ele>
        <time>2020-05-18T13:26:52Z</time>
      </trkpt>
      <trkpt lat="43.27573" lon="0.08594">
        <ele>278</ele>
        <time>2020-05-18T13:26:59Z</time>
      </trkpt>
      <trkpt lat="43.27607" lon="0.08592">
        <ele>279</ele>
        <time>2020-05-18T13:27:25Z</time>
      </trkpt>
      <trkpt lat="43.27612" lon="0.08592">
        <ele>279</ele>
        <time>2020-05-18T13:27:29Z</time>
      </trkpt>
      <trkpt lat="43.27617" lon="0.08593">
        <ele>279</ele>
        <time>2020-05-18T13:27:33Z</time>
      </trkpt>
      <trkpt lat="43.27623" lon="0.08592">
        <ele>279</ele>
        <time>2020-05-18T13:27:37Z</time>
      </trkpt>
      <trkpt lat="43.27627" lon="0.08594">
        <ele>279</ele>
        <time>2020-05-18T13:27:41Z</time>
      </trkpt>
      <trkpt lat="43.27632" lon="0.08593">
        <ele>279</ele>
        <time>2020-05-18T13:27:46Z</time>
      </trkpt>
      <trkpt lat="43.27636" lon="0.08589">
        <ele>279</ele>
        <time>2020-05-18T13:27:51Z</time>
      </trkpt>
      <trkpt lat="43.27638" lon="0.08582">
        <ele>279</ele>
        <time>2020-05-18T13:27:55Z</time>
      </trkpt>
      <trkpt lat="43.2764" lon="0.08576">
        <ele>279</ele>
        <time>2020-05-18T13:27:59Z</time>
      </trkpt>
      <trkpt lat="43.27643" lon="0.08569">
        <ele>279</ele>
        <time>2020-05-18T13:28:04Z</time>
      </trkpt>
      <trkpt lat="43.27646" lon="0.08555">
        <ele>279</ele>
        <time>2020-05-18T13:28:12Z</time>
      </trkpt>
      <trkpt lat="43.2765" lon="0.08514">
        <ele>279</ele>
        <time>2020-05-18T13:28:36Z</time>
      </trkpt>
      <trkpt lat="43.27649" lon="0.08508">
        <ele>279</ele>
        <time>2020-05-18T13:28:39Z</time>
      </trkpt>
      <trkpt lat="43.27647" lon="0.08502">
        <ele>279</ele>
        <time>2020-05-18T13:28:42Z</time>
      </trkpt>
      <trkpt lat="43.27643" lon="0.08495">
        <ele>279</ele>
        <time>2020-05-18T13:28:51Z</time>
      </trkpt>
      <trkpt lat="43.27639" lon="0.08492">
        <ele>279</ele>
        <time>2020-05-18T13:28:56Z</time>
      </trkpt>
      <trkpt lat="43.27631" lon="0.08484">
        <ele>279</ele>
        <time>2020-05-18T13:29:10Z</time>
      </trkpt>
      <trkpt lat="43.27619" lon="0.08481">
        <ele>279</ele>
        <time>2020-05-18T13:29:21Z</time>
      </trkpt>
      <trkpt lat="43.27607" lon="0.08482">
        <ele>279</ele>
        <time>2020-05-18T13:29:32Z</time>
      </trkpt>
      <trkpt lat="43.27602" lon="0.0848">
        <ele>279</ele>
        <time>2020-05-18T13:29:37Z</time>
      </trkpt>
      <trkpt lat="43.27597" lon="0.08481">
        <ele>279</ele>
        <time>2020-05-18T13:29:42Z</time>
      </trkpt>
      <trkpt lat="43.27591" lon="0.0848">
        <ele>279</ele>
        <time>2020-05-18T13:29:47Z</time>
      </trkpt>
      <trkpt lat="43.27581" lon="0.0848">
        <ele>279</ele>
        <time>2020-05-18T13:29:55Z</time>
      </trkpt>
      <trkpt lat="43.27567" lon="0.08475">
        <ele>279</ele>
        <time>2020-05-18T13:30:08Z</time>
      </trkpt>
      <trkpt lat="43.27554" lon="0.08462">
        <ele>279</ele>
        <time>2020-05-18T13:30:21Z</time>
      </trkpt>
      <trkpt lat="43.2755" lon="0.08456">
        <ele>279</ele>
        <time>2020-05-18T13:30:26Z</time>
      </trkpt>
      <trkpt lat="43.27548" lon="0.08449">
        <ele>279</ele>
        <time>2020-05-18T13:30:31Z</time>
      </trkpt>
      <trkpt lat="43.27547" lon="0.08441">
        <ele>279</ele>
        <time>2020-05-18T13:30:35Z</time>
      </trkpt>
      <trkpt lat="43.2755" lon="0.08404">
        <ele>280</ele>
        <time>2020-05-18T13:30:56Z</time>
      </trkpt>
      <trkpt lat="43.27538" lon="0.08404">
        <ele>280</ele>
        <time>2020-05-18T13:31:07Z</time>
      </trkpt>
      <trkpt lat="43.27528" lon="0.08401">
        <ele>280</ele>
        <time>2020-05-18T13:31:15Z</time>
      </trkpt>
      <trkpt lat="43.27487" lon="0.08392">
        <ele>280</ele>
        <time>2020-05-18T13:31:46Z</time>
      </trkpt>
      <trkpt lat="43.27454" lon="0.08385">
        <ele>280</ele>
        <time>2020-05-18T13:32:13Z</time>
      </trkpt>
      <trkpt lat="43.27438" lon="0.08385">
        <ele>280</ele>
        <time>2020-05-18T13:32:26Z</time>
      </trkpt>
      <trkpt lat="43.27422" lon="0.08382">
        <ele>280</ele>
        <time>2020-05-18T13:32:39Z</time>
      </trkpt>
      <trkpt lat="43.27416" lon="0.08383">
        <ele>280</ele>
        <time>2020-05-18T13:32:43Z</time>
      </trkpt>
      <trkpt lat="43.2741" lon="0.08383">
        <ele>281</ele>
        <time>2020-05-18T13:32:48Z</time>
      </trkpt>
      <trkpt lat="43.27403" lon="0.08384">
        <ele>281</ele>
        <time>2020-05-18T13:32:52Z</time>
      </trkpt>
      <trkpt lat="43.27398" lon="0.08383">
        <ele>280</ele>
        <time>2020-05-18T13:32:58Z</time>
      </trkpt>
      <trkpt lat="43.27393" lon="0.08387">
        <ele>280</ele>
        <time>2020-05-18T13:33:24Z</time>
      </trkpt>
      <trkpt lat="43.27395" lon="0.08383">
        <ele>279</ele>
        <time>2020-05-18T13:36:50Z</time>
      </trkpt>
      <trkpt lat="43.27387" lon="0.08388">
        <ele>279</ele>
        <time>2020-05-18T13:37:26Z</time>
      </trkpt>
      <trkpt lat="43.27359" lon="0.08393">
        <ele>280</ele>
        <time>2020-05-18T13:37:50Z</time>
      </trkpt>
      <trkpt lat="43.27355" lon="0.08396">
        <ele>280</ele>
        <time>2020-05-18T13:37:54Z</time>
      </trkpt>
      <trkpt lat="43.27313" lon="0.08401">
        <ele>281</ele>
        <time>2020-05-18T13:38:28Z</time>
      </trkpt>
      <trkpt lat="43.27292" lon="0.08401">
        <ele>281</ele>
        <time>2020-05-18T13:38:44Z</time>
      </trkpt>
      <trkpt lat="43.27253" lon="0.08392">
        <ele>281</ele>
        <time>2020-05-18T13:39:14Z</time>
      </trkpt>
      <trkpt lat="43.27219" lon="0.08379">
        <ele>282</ele>
        <time>2020-05-18T13:39:43Z</time>
      </trkpt>
      <trkpt lat="43.27216" lon="0.08374">
        <ele>282</ele>
        <time>2020-05-18T13:39:52Z</time>
      </trkpt>
      <trkpt lat="43.27217" lon="0.08375">
        <ele>281</ele>
        <time>2020-05-18T13:41:10Z</time>
      </trkpt>
      <trkpt lat="43.27215" lon="0.08377">
        <ele>280</ele>
        <time>2020-05-18T13:41:52Z</time>
      </trkpt>
      <trkpt lat="43.27209" lon="0.08376">
        <ele>280</ele>
        <time>2020-05-18T13:42:09Z</time>
      </trkpt>
      <trkpt lat="43.27201" lon="0.0837">
        <ele>281</ele>
        <time>2020-05-18T13:42:18Z</time>
      </trkpt>
      <trkpt lat="43.27191" lon="0.08363">
        <ele>281</ele>
        <time>2020-05-18T13:42:27Z</time>
      </trkpt>
      <trkpt lat="43.27171" lon="0.08357">
        <ele>281</ele>
        <time>2020-05-18T13:42:44Z</time>
      </trkpt>
      <trkpt lat="43.27132" lon="0.08367">
        <ele>281</ele>
        <time>2020-05-18T13:43:15Z</time>
      </trkpt>
      <trkpt lat="43.27096" lon="0.0839">
        <ele>281</ele>
        <time>2020-05-18T13:43:48Z</time>
      </trkpt>
      <trkpt lat="43.27086" lon="0.08396">
        <ele>281</ele>
        <time>2020-05-18T13:43:56Z</time>
      </trkpt>
      <trkpt lat="43.27062" lon="0.08405">
        <ele>281</ele>
        <time>2020-05-18T13:44:16Z</time>
      </trkpt>
      <trkpt lat="43.27046" lon="0.08405">
        <ele>280</ele>
        <time>2020-05-18T13:44:25Z</time>
      </trkpt>
      <trkpt lat="43.27006" lon="0.08382">
        <ele>280</ele>
        <time>2020-05-18T13:44:58Z</time>
      </trkpt>
      <trkpt lat="43.26987" lon="0.08378">
        <ele>280</ele>
        <time>2020-05-18T13:45:15Z</time>
      </trkpt>
      <trkpt lat="43.26952" lon="0.08383">
        <ele>281</ele>
        <time>2020-05-18T13:45:46Z</time>
      </trkpt>
      <trkpt lat="43.26946" lon="0.08385">
        <ele>281</ele>
        <time>2020-05-18T13:45:50Z</time>
      </trkpt>
      <trkpt lat="43.26908" lon="0.08403">
        <ele>281</ele>
        <time>2020-05-18T13:46:20Z</time>
      </trkpt>
      <trkpt lat="43.26861" lon="0.08426">
        <ele>282</ele>
        <time>2020-05-18T13:46:59Z</time>
      </trkpt>
      <trkpt lat="43.26853" lon="0.08427">
        <ele>283</ele>
        <time>2020-05-18T13:47:07Z</time>
      </trkpt>
      <trkpt lat="43.26819" lon="0.08438">
        <ele>283</ele>
        <time>2020-05-18T13:47:33Z</time>
      </trkpt>
      <trkpt lat="43.26813" lon="0.08439">
        <ele>283</ele>
        <time>2020-05-18T13:47:38Z</time>
      </trkpt>
      <trkpt lat="43.26803" lon="0.08444">
        <ele>283</ele>
        <time>2020-05-18T13:47:47Z</time>
      </trkpt>
      <trkpt lat="43.26791" lon="0.0845">
        <ele>283</ele>
        <time>2020-05-18T13:47:58Z</time>
      </trkpt>
      <trkpt lat="43.26781" lon="0.08455">
        <ele>283</ele>
        <time>2020-05-18T13:48:05Z</time>
      </trkpt>
      <trkpt lat="43.26776" lon="0.08456">
        <ele>283</ele>
        <time>2020-05-18T13:48:08Z</time>
      </trkpt>
      <trkpt lat="43.26771" lon="0.08458">
        <ele>283</ele>
        <time>2020-05-18T13:48:12Z</time>
      </trkpt>
      <trkpt lat="43.2676" lon="0.0846">
        <ele>283</ele>
        <time>2020-05-18T13:48:20Z</time>
      </trkpt>
      <trkpt lat="43.26751" lon="0.08465">
        <ele>284</ele>
        <time>2020-05-18T13:48:26Z</time>
      </trkpt>
      <trkpt lat="43.26746" lon="0.08466">
        <ele>284</ele>
        <time>2020-05-18T13:48:31Z</time>
      </trkpt>
      <trkpt lat="43.267" lon="0.08462">
        <ele>284</ele>
        <time>2020-05-18T13:49:06Z</time>
      </trkpt>
      <trkpt lat="43.26676" lon="0.08458">
        <ele>284</ele>
        <time>2020-05-18T13:49:23Z</time>
      </trkpt>
      <trkpt lat="43.2666" lon="0.08451">
        <ele>285</ele>
        <time>2020-05-18T13:49:36Z</time>
      </trkpt>
      <trkpt lat="43.26641" lon="0.08452">
        <ele>285</ele>
        <time>2020-05-18T13:49:52Z</time>
      </trkpt>
      <trkpt lat="43.26626" lon="0.0844">
        <ele>285</ele>
        <time>2020-05-18T13:50:05Z</time>
      </trkpt>
      <trkpt lat="43.26622" lon="0.08435">
        <ele>285</ele>
        <time>2020-05-18T13:50:09Z</time>
      </trkpt>
      <trkpt lat="43.26601" lon="0.08424">
        <ele>285</ele>
        <time>2020-05-18T13:50:25Z</time>
      </trkpt>
      <trkpt lat="43.26571" lon="0.08414">
        <ele>286</ele>
        <time>2020-05-18T13:50:50Z</time>
      </trkpt>
      <trkpt lat="43.26534" lon="0.08384">
        <ele>286</ele>
        <time>2020-05-18T13:51:24Z</time>
      </trkpt>
      <trkpt lat="43.26514" lon="0.08366">
        <ele>286</ele>
        <time>2020-05-18T13:51:40Z</time>
      </trkpt>
      <trkpt lat="43.26504" lon="0.08361">
        <ele>286</ele>
        <time>2020-05-18T13:51:49Z</time>
      </trkpt>
      <trkpt lat="43.265" lon="0.08353">
        <ele>286</ele>
        <time>2020-05-18T13:51:54Z</time>
      </trkpt>
      <trkpt lat="43.26489" lon="0.08338">
        <ele>286</ele>
        <time>2020-05-18T13:52:06Z</time>
      </trkpt>
      <trkpt lat="43.26485" lon="0.0833">
        <ele>286</ele>
        <time>2020-05-18T13:52:12Z</time>
      </trkpt>
      <trkpt lat="43.2648" lon="0.08325">
        <ele>286</ele>
        <time>2020-05-18T13:52:15Z</time>
      </trkpt>
      <trkpt lat="43.26459" lon="0.08318">
        <ele>287</ele>
        <time>2020-05-18T13:52:35Z</time>
      </trkpt>
      <trkpt lat="43.26425" lon="0.0832">
        <ele>287</ele>
        <time>2020-05-18T13:53:01Z</time>
      </trkpt>
      <trkpt lat="43.26408" lon="0.08326">
        <ele>287</ele>
        <time>2020-05-18T13:53:13Z</time>
      </trkpt>
      <trkpt lat="43.26403" lon="0.08327">
        <ele>287</ele>
        <time>2020-05-18T13:53:17Z</time>
      </trkpt>
      <trkpt lat="43.26367" lon="0.08339">
        <ele>287</ele>
        <time>2020-05-18T13:53:43Z</time>
      </trkpt>
      <trkpt lat="43.26361" lon="0.08339">
        <ele>287</ele>
        <time>2020-05-18T13:53:48Z</time>
      </trkpt>
      <trkpt lat="43.26356" lon="0.0834">
        <ele>287</ele>
        <time>2020-05-18T13:53:52Z</time>
      </trkpt>
      <trkpt lat="43.26314" lon="0.08342">
        <ele>288</ele>
        <time>2020-05-18T13:54:25Z</time>
      </trkpt>
      <trkpt lat="43.26278" lon="0.08342">
        <ele>288</ele>
        <time>2020-05-18T13:55:00Z</time>
      </trkpt>
      <trkpt lat="43.26258" lon="0.08343">
        <ele>288</ele>
        <time>2020-05-18T13:55:13Z</time>
      </trkpt>
      <trkpt lat="43.26232" lon="0.08352">
        <ele>288</ele>
        <time>2020-05-18T13:55:31Z</time>
      </trkpt>
      <trkpt lat="43.26203" lon="0.08356">
        <ele>289</ele>
        <time>2020-05-18T13:55:56Z</time>
      </trkpt>
      <trkpt lat="43.26197" lon="0.08354">
        <ele>289</ele>
        <time>2020-05-18T13:56:02Z</time>
      </trkpt>
      <trkpt lat="43.26153" lon="0.08363">
        <ele>289</ele>
        <time>2020-05-18T13:56:33Z</time>
      </trkpt>
      <trkpt lat="43.26125" lon="0.08367">
        <ele>289</ele>
        <time>2020-05-18T13:56:54Z</time>
      </trkpt>
      <trkpt lat="43.26111" lon="0.08366">
        <ele>290</ele>
        <time>2020-05-18T13:57:05Z</time>
      </trkpt>
      <trkpt lat="43.26066" lon="0.08379">
        <ele>290</ele>
        <time>2020-05-18T13:57:39Z</time>
      </trkpt>
      <trkpt lat="43.2605" lon="0.08384">
        <ele>291</ele>
        <time>2020-05-18T13:57:53Z</time>
      </trkpt>
      <trkpt lat="43.26038" lon="0.08378">
        <ele>291</ele>
        <time>2020-05-18T13:58:01Z</time>
      </trkpt>
      <trkpt lat="43.26014" lon="0.08383">
        <ele>291</ele>
        <time>2020-05-18T13:58:19Z</time>
      </trkpt>
      <trkpt lat="43.26004" lon="0.08387">
        <ele>291</ele>
        <time>2020-05-18T13:58:27Z</time>
      </trkpt>
      <trkpt lat="43.25981" lon="0.08385">
        <ele>291</ele>
        <time>2020-05-18T13:58:43Z</time>
      </trkpt>
      <trkpt lat="43.2597" lon="0.0838">
        <ele>291</ele>
        <time>2020-05-18T13:58:52Z</time>
      </trkpt>
      <trkpt lat="43.25927" lon="0.08375">
        <ele>291</ele>
        <time>2020-05-18T13:59:26Z</time>
      </trkpt>
      <trkpt lat="43.25921" lon="0.08373">
        <ele>292</ele>
        <time>2020-05-18T13:59:32Z</time>
      </trkpt>
      <trkpt lat="43.25909" lon="0.08374">
        <ele>292</ele>
        <time>2020-05-18T13:59:43Z</time>
      </trkpt>
      <trkpt lat="43.25898" lon="0.08375">
        <ele>292</ele>
        <time>2020-05-18T13:59:51Z</time>
      </trkpt>
      <trkpt lat="43.25862" lon="0.08368">
        <ele>292</ele>
        <time>2020-05-18T14:00:18Z</time>
      </trkpt>
      <trkpt lat="43.25851" lon="0.08367">
        <ele>292</ele>
        <time>2020-05-18T14:00:28Z</time>
      </trkpt>
      <trkpt lat="43.25846" lon="0.08369">
        <ele>292</ele>
        <time>2020-05-18T14:00:32Z</time>
      </trkpt>
      <trkpt lat="43.25819" lon="0.08372">
        <ele>292</ele>
        <time>2020-05-18T14:00:52Z</time>
      </trkpt>
      <trkpt lat="43.25796" lon="0.08369">
        <ele>292</ele>
        <time>2020-05-18T14:01:07Z</time>
      </trkpt>
      <trkpt lat="43.25775" lon="0.08371">
        <ele>293</ele>
        <time>2020-05-18T14:01:23Z</time>
      </trkpt>
      <trkpt lat="43.2577" lon="0.08369">
        <ele>293</ele>
        <time>2020-05-18T14:01:27Z</time>
      </trkpt>
      <trkpt lat="43.25735" lon="0.08369">
        <ele>293</ele>
        <time>2020-05-18T14:01:55Z</time>
      </trkpt>
      <trkpt lat="43.2573" lon="0.08368">
        <ele>293</ele>
        <time>2020-05-18T14:01:59Z</time>
      </trkpt>
      <trkpt lat="43.25704" lon="0.08372">
        <ele>293</ele>
        <time>2020-05-18T14:02:19Z</time>
      </trkpt>
      <trkpt lat="43.25699" lon="0.08374">
        <ele>293</ele>
        <time>2020-05-18T14:02:23Z</time>
      </trkpt>
      <trkpt lat="43.25689" lon="0.08374">
        <ele>293</ele>
        <time>2020-05-18T14:02:32Z</time>
      </trkpt>
      <trkpt lat="43.25667" lon="0.08379">
        <ele>293</ele>
        <time>2020-05-18T14:02:51Z</time>
      </trkpt>
      <trkpt lat="43.25661" lon="0.08376">
        <ele>293</ele>
        <time>2020-05-18T14:02:56Z</time>
      </trkpt>
      <trkpt lat="43.25649" lon="0.08378">
        <ele>293</ele>
        <time>2020-05-18T14:03:08Z</time>
      </trkpt>
      <trkpt lat="43.25644" lon="0.08382">
        <ele>293</ele>
        <time>2020-05-18T14:03:14Z</time>
      </trkpt>
      <trkpt lat="43.25594" lon="0.08387">
        <ele>294</ele>
        <time>2020-05-18T14:03:48Z</time>
      </trkpt>
      <trkpt lat="43.25568" lon="0.08389">
        <ele>294</ele>
        <time>2020-05-18T14:04:06Z</time>
      </trkpt>
      <trkpt lat="43.2555" lon="0.08387">
        <ele>294</ele>
        <time>2020-05-18T14:04:18Z</time>
      </trkpt>
      <trkpt lat="43.25533" lon="0.08391">
        <ele>293</ele>
        <time>2020-05-18T14:04:32Z</time>
      </trkpt>
      <trkpt lat="43.2551" lon="0.08396">
        <ele>294</ele>
        <time>2020-05-18T14:04:50Z</time>
      </trkpt>
      <trkpt lat="43.25494" lon="0.08404">
        <ele>294</ele>
        <time>2020-05-18T14:05:03Z</time>
      </trkpt>
      <trkpt lat="43.25487" lon="0.08404">
        <ele>294</ele>
        <time>2020-05-18T14:05:09Z</time>
      </trkpt>
      <trkpt lat="43.25444" lon="0.08415">
        <ele>294</ele>
        <time>2020-05-18T14:05:42Z</time>
      </trkpt>
      <trkpt lat="43.25415" lon="0.08419">
        <ele>294</ele>
        <time>2020-05-18T14:06:04Z</time>
      </trkpt>
      <trkpt lat="43.2541" lon="0.08422">
        <ele>294</ele>
        <time>2020-05-18T14:06:09Z</time>
      </trkpt>
      <trkpt lat="43.25392" lon="0.08422">
        <ele>294</ele>
        <time>2020-05-18T14:06:21Z</time>
      </trkpt>
      <trkpt lat="43.25386" lon="0.08423">
        <ele>294</ele>
        <time>2020-05-18T14:06:27Z</time>
      </trkpt>
      <trkpt lat="43.25368" lon="0.08424">
        <ele>294</ele>
        <time>2020-05-18T14:06:40Z</time>
      </trkpt>
      <trkpt lat="43.25362" lon="0.08426">
        <ele>294</ele>
        <time>2020-05-18T14:06:45Z</time>
      </trkpt>
      <trkpt lat="43.25356" lon="0.08425">
        <ele>294</ele>
        <time>2020-05-18T14:06:50Z</time>
      </trkpt>
      <trkpt lat="43.25343" lon="0.08426">
        <ele>295</ele>
        <time>2020-05-18T14:06:58Z</time>
      </trkpt>
      <trkpt lat="43.25339" lon="0.08426">
        <ele>295</ele>
        <time>2020-05-18T14:07:01Z</time>
      </trkpt>
      <trkpt lat="43.25312" lon="0.08412">
        <ele>294</ele>
        <time>2020-05-18T14:07:22Z</time>
      </trkpt>
      <trkpt lat="43.25296" lon="0.08412">
        <ele>294</ele>
        <time>2020-05-18T14:07:33Z</time>
      </trkpt>
      <trkpt lat="43.25285" lon="0.08416">
        <ele>295</ele>
        <time>2020-05-18T14:07:41Z</time>
      </trkpt>
      <trkpt lat="43.25266" lon="0.08432">
        <ele>295</ele>
        <time>2020-05-18T14:08:00Z</time>
      </trkpt>
      <trkpt lat="43.25261" lon="0.08432">
        <ele>295</ele>
        <time>2020-05-18T14:08:04Z</time>
      </trkpt>
      <trkpt lat="43.25256" lon="0.08422">
        <ele>295</ele>
        <time>2020-05-18T14:08:13Z</time>
      </trkpt>
      <trkpt lat="43.25253" lon="0.08418">
        <ele>295</ele>
        <time>2020-05-18T14:08:17Z</time>
      </trkpt>
      <trkpt lat="43.2525" lon="0.08411">
        <ele>296</ele>
        <time>2020-05-18T14:10:40Z</time>
      </trkpt>
      <trkpt lat="43.25247" lon="0.08406">
        <ele>296</ele>
        <time>2020-05-18T14:13:22Z</time>
      </trkpt>
      <trkpt lat="43.25244" lon="0.08393">
        <ele>296</ele>
        <time>2020-05-18T14:13:33Z</time>
      </trkpt>
      <trkpt lat="43.2524" lon="0.0838">
        <ele>297</ele>
        <time>2020-05-18T14:13:41Z</time>
      </trkpt>
      <trkpt lat="43.25236" lon="0.08376">
        <ele>297</ele>
        <time>2020-05-18T14:13:47Z</time>
      </trkpt>
      <trkpt lat="43.2523" lon="0.08375">
        <ele>297</ele>
        <time>2020-05-18T14:13:52Z</time>
      </trkpt>
      <trkpt lat="43.25215" lon="0.08379">
        <ele>297</ele>
        <time>2020-05-18T14:14:05Z</time>
      </trkpt>
      <trkpt lat="43.25177" lon="0.0837">
        <ele>297</ele>
        <time>2020-05-18T14:14:34Z</time>
      </trkpt>
      <trkpt lat="43.25159" lon="0.0835">
        <ele>297</ele>
        <time>2020-05-18T14:14:52Z</time>
      </trkpt>
      <trkpt lat="43.25154" lon="0.08348">
        <ele>297</ele>
        <time>2020-05-18T14:14:56Z</time>
      </trkpt>
      <trkpt lat="43.25113" lon="0.08348">
        <ele>298</ele>
        <time>2020-05-18T14:15:29Z</time>
      </trkpt>
      <trkpt lat="43.25093" lon="0.08345">
        <ele>298</ele>
        <time>2020-05-18T14:15:43Z</time>
      </trkpt>
      <trkpt lat="43.25084" lon="0.0834">
        <ele>298</ele>
        <time>2020-05-18T14:15:51Z</time>
      </trkpt>
      <trkpt lat="43.25077" lon="0.08335">
        <ele>298</ele>
        <time>2020-05-18T14:15:58Z</time>
      </trkpt>
      <trkpt lat="43.25067" lon="0.08334">
        <ele>298</ele>
        <time>2020-05-18T14:16:05Z</time>
      </trkpt>
      <trkpt lat="43.25057" lon="0.08335">
        <ele>298</ele>
        <time>2020-05-18T14:16:14Z</time>
      </trkpt>
      <trkpt lat="43.25016" lon="0.08329">
        <ele>299</ele>
        <time>2020-05-18T14:16:48Z</time>
      </trkpt>
      <trkpt lat="43.24988" lon="0.08327">
        <ele>299</ele>
        <time>2020-05-18T14:17:08Z</time>
      </trkpt>
      <trkpt lat="43.24983" lon="0.08328">
        <ele>299</ele>
        <time>2020-05-18T14:17:12Z</time>
      </trkpt>
      <trkpt lat="43.24939" lon="0.08325">
        <ele>299</ele>
        <time>2020-05-18T14:17:46Z</time>
      </trkpt>
      <trkpt lat="43.24909" lon="0.0833">
        <ele>299</ele>
        <time>2020-05-18T14:18:10Z</time>
      </trkpt>
      <trkpt lat="43.24898" lon="0.08329">
        <ele>299</ele>
        <time>2020-05-18T14:18:18Z</time>
      </trkpt>
      <trkpt lat="43.24878" lon="0.08331">
        <ele>299</ele>
        <time>2020-05-18T14:18:32Z</time>
      </trkpt>
      <trkpt lat="43.24868" lon="0.0833">
        <ele>299</ele>
        <time>2020-05-18T14:18:40Z</time>
      </trkpt>
      <trkpt lat="43.24853" lon="0.08332">
        <ele>299</ele>
        <time>2020-05-18T14:18:53Z</time>
      </trkpt>
      <trkpt lat="43.24846" lon="0.08335">
        <ele>299</ele>
        <time>2020-05-18T14:18:59Z</time>
      </trkpt>
      <trkpt lat="43.24825" lon="0.08339">
        <ele>299</ele>
        <time>2020-05-18T14:19:14Z</time>
      </trkpt>
      <trkpt lat="43.24819" lon="0.0834">
        <ele>299</ele>
        <time>2020-05-18T14:19:18Z</time>
      </trkpt>
      <trkpt lat="43.24815" lon="0.08344">
        <ele>299</ele>
        <time>2020-05-18T14:19:22Z</time>
      </trkpt>
      <trkpt lat="43.24769" lon="0.08351">
        <ele>300</ele>
        <time>2020-05-18T14:19:57Z</time>
      </trkpt>
      <trkpt lat="43.24759" lon="0.08351">
        <ele>300</ele>
        <time>2020-05-18T14:20:05Z</time>
      </trkpt>
      <trkpt lat="43.24748" lon="0.08355">
        <ele>300</ele>
        <time>2020-05-18T14:20:13Z</time>
      </trkpt>
      <trkpt lat="43.24743" lon="0.08355">
        <ele>300</ele>
        <time>2020-05-18T14:20:18Z</time>
      </trkpt>
      <trkpt lat="43.24733" lon="0.08359">
        <ele>300</ele>
        <time>2020-05-18T14:20:26Z</time>
      </trkpt>
      <trkpt lat="43.24721" lon="0.08357">
        <ele>300</ele>
        <time>2020-05-18T14:20:37Z</time>
      </trkpt>
      <trkpt lat="43.24716" lon="0.08357">
        <ele>300</ele>
        <time>2020-05-18T14:20:41Z</time>
      </trkpt>
      <trkpt lat="43.2468" lon="0.08351">
        <ele>299</ele>
        <time>2020-05-18T14:21:09Z</time>
      </trkpt>
      <trkpt lat="43.2467" lon="0.08342">
        <ele>299</ele>
        <time>2020-05-18T14:21:19Z</time>
      </trkpt>
      <trkpt lat="43.24659" lon="0.08343">
        <ele>299</ele>
        <time>2020-05-18T14:21:26Z</time>
      </trkpt>
      <trkpt lat="43.24632" lon="0.08343">
        <ele>300</ele>
        <time>2020-05-18T14:21:45Z</time>
      </trkpt>
      <trkpt lat="43.24607" lon="0.08336">
        <ele>300</ele>
        <time>2020-05-18T14:22:04Z</time>
      </trkpt>
      <trkpt lat="43.24597" lon="0.08331">
        <ele>300</ele>
        <time>2020-05-18T14:22:11Z</time>
      </trkpt>
      <trkpt lat="43.24593" lon="0.08329">
        <ele>300</ele>
        <time>2020-05-18T14:22:15Z</time>
      </trkpt>
      <trkpt lat="43.24555" lon="0.08301">
        <ele>300</ele>
        <time>2020-05-18T14:22:47Z</time>
      </trkpt>
      <trkpt lat="43.24547" lon="0.08292">
        <ele>300</ele>
        <time>2020-05-18T14:22:54Z</time>
      </trkpt>
      <trkpt lat="43.2453" lon="0.08278">
        <ele>300</ele>
        <time>2020-05-18T14:23:11Z</time>
      </trkpt>
      <trkpt lat="43.24486" lon="0.08269">
        <ele>300</ele>
        <time>2020-05-18T14:23:43Z</time>
      </trkpt>
      <trkpt lat="43.24476" lon="0.08267">
        <ele>300</ele>
        <time>2020-05-18T14:23:50Z</time>
      </trkpt>
      <trkpt lat="43.24465" lon="0.08265">
        <ele>300</ele>
        <time>2020-05-18T14:23:59Z</time>
      </trkpt>
      <trkpt lat="43.24454" lon="0.08266">
        <ele>300</ele>
        <time>2020-05-18T14:24:08Z</time>
      </trkpt>
      <trkpt lat="43.24443" lon="0.08269">
        <ele>301</ele>
        <time>2020-05-18T14:24:22Z</time>
      </trkpt>
      <trkpt lat="43.24438" lon="0.08272">
        <ele>301</ele>
        <time>2020-05-18T14:24:27Z</time>
      </trkpt>
      <trkpt lat="43.24426" lon="0.08273">
        <ele>300</ele>
        <time>2020-05-18T14:24:35Z</time>
      </trkpt>
      <trkpt lat="43.24413" lon="0.08279">
        <ele>300</ele>
        <time>2020-05-18T14:24:41Z</time>
      </trkpt>
      <trkpt lat="43.24377" lon="0.08281">
        <ele>300</ele>
        <time>2020-05-18T14:25:07Z</time>
      </trkpt>
      <trkpt lat="43.24372" lon="0.08278">
        <ele>301</ele>
        <time>2020-05-18T14:25:11Z</time>
      </trkpt>
      <trkpt lat="43.24329" lon="0.08274">
        <ele>301</ele>
        <time>2020-05-18T14:25:45Z</time>
      </trkpt>
      <trkpt lat="43.24312" lon="0.08272">
        <ele>301</ele>
        <time>2020-05-18T14:25:55Z</time>
      </trkpt>
      <trkpt lat="43.2429" lon="0.08262">
        <ele>302</ele>
        <time>2020-05-18T14:26:13Z</time>
      </trkpt>
      <trkpt lat="43.24286" lon="0.08259">
        <ele>303</ele>
        <time>2020-05-18T14:26:18Z</time>
      </trkpt>
      <trkpt lat="43.24274" lon="0.08257">
        <ele>303</ele>
        <time>2020-05-18T14:26:27Z</time>
      </trkpt>
      <trkpt lat="43.24235" lon="0.0826">
        <ele>303</ele>
        <time>2020-05-18T14:26:56Z</time>
      </trkpt>
      <trkpt lat="43.2421" lon="0.08256">
        <ele>303</ele>
        <time>2020-05-18T14:27:16Z</time>
      </trkpt>
      <trkpt lat="43.24167" lon="0.0826">
        <ele>303</ele>
        <time>2020-05-18T14:27:49Z</time>
      </trkpt>
      <trkpt lat="43.24162" lon="0.08261">
        <ele>303</ele>
        <time>2020-05-18T14:27:55Z</time>
      </trkpt>
      <trkpt lat="43.24139" lon="0.08267">
        <ele>303</ele>
        <time>2020-05-18T14:28:15Z</time>
      </trkpt>
      <trkpt lat="43.24135" lon="0.08272">
        <ele>303</ele>
        <time>2020-05-18T14:28:20Z</time>
      </trkpt>
      <trkpt lat="43.24104" lon="0.08273">
        <ele>304</ele>
        <time>2020-05-18T14:28:41Z</time>
      </trkpt>
      <trkpt lat="43.24095" lon="0.08277">
        <ele>304</ele>
        <time>2020-05-18T14:28:51Z</time>
      </trkpt>
      <trkpt lat="43.24091" lon="0.08282">
        <ele>304</ele>
        <time>2020-05-18T14:28:56Z</time>
      </trkpt>
      <trkpt lat="43.24076" lon="0.08288">
        <ele>304</ele>
        <time>2020-05-18T14:29:06Z</time>
      </trkpt>
      <trkpt lat="43.24037" lon="0.08314">
        <ele>304</ele>
        <time>2020-05-18T14:29:40Z</time>
      </trkpt>
      <trkpt lat="43.24032" lon="0.08318">
        <ele>304</ele>
        <time>2020-05-18T14:29:43Z</time>
      </trkpt>
      <trkpt lat="43.24028" lon="0.0832">
        <ele>304</ele>
        <time>2020-05-18T14:29:47Z</time>
      </trkpt>
      <trkpt lat="43.24024" lon="0.08324">
        <ele>304</ele>
        <time>2020-05-18T14:29:51Z</time>
      </trkpt>
      <trkpt lat="43.24018" lon="0.08327">
        <ele>305</ele>
        <time>2020-05-18T14:29:55Z</time>
      </trkpt>
      <trkpt lat="43.24005" lon="0.08334">
        <ele>305</ele>
        <time>2020-05-18T14:30:06Z</time>
      </trkpt>
      <trkpt lat="43.24001" lon="0.08336">
        <ele>305</ele>
        <time>2020-05-18T14:30:09Z</time>
      </trkpt>
      <trkpt lat="43.23986" lon="0.08336">
        <ele>304</ele>
        <time>2020-05-18T14:30:21Z</time>
      </trkpt>
      <trkpt lat="43.23975" lon="0.08334">
        <ele>304</ele>
        <time>2020-05-18T14:30:30Z</time>
      </trkpt>
      <trkpt lat="43.23963" lon="0.08336">
        <ele>304</ele>
        <time>2020-05-18T14:30:42Z</time>
      </trkpt>
      <trkpt lat="43.23947" lon="0.08339">
        <ele>304</ele>
        <time>2020-05-18T14:30:54Z</time>
      </trkpt>
      <trkpt lat="43.23937" lon="0.08347">
        <ele>304</ele>
        <time>2020-05-18T14:31:01Z</time>
      </trkpt>
      <trkpt lat="43.23931" lon="0.08347">
        <ele>304</ele>
        <time>2020-05-18T14:31:05Z</time>
      </trkpt>
      <trkpt lat="43.23927" lon="0.0835">
        <ele>304</ele>
        <time>2020-05-18T14:31:09Z</time>
      </trkpt>
      <trkpt lat="43.23921" lon="0.0835">
        <ele>304</ele>
        <time>2020-05-18T14:31:13Z</time>
      </trkpt>
      <trkpt lat="43.23913" lon="0.08359">
        <ele>304</ele>
        <time>2020-05-18T14:31:20Z</time>
      </trkpt>
      <trkpt lat="43.23904" lon="0.08361">
        <ele>304</ele>
        <time>2020-05-18T14:31:26Z</time>
      </trkpt>
      <trkpt lat="43.23899" lon="0.08361">
        <ele>304</ele>
        <time>2020-05-18T14:31:30Z</time>
      </trkpt>
      <trkpt lat="43.23881" lon="0.08369">
        <ele>305</ele>
        <time>2020-05-18T14:31:45Z</time>
      </trkpt>
      <trkpt lat="43.23872" lon="0.08377">
        <ele>305</ele>
        <time>2020-05-18T14:31:53Z</time>
      </trkpt>
      <trkpt lat="43.23854" lon="0.08382">
        <ele>305</ele>
        <time>2020-05-18T14:32:09Z</time>
      </trkpt>
      <trkpt lat="43.23829" lon="0.084">
        <ele>305</ele>
        <time>2020-05-18T14:32:29Z</time>
      </trkpt>
      <trkpt lat="43.23824" lon="0.08401">
        <ele>305</ele>
        <time>2020-05-18T14:32:32Z</time>
      </trkpt>
      <trkpt lat="43.23785" lon="0.08426">
        <ele>306</ele>
        <time>2020-05-18T14:33:03Z</time>
      </trkpt>
      <trkpt lat="43.23771" lon="0.08434">
        <ele>306</ele>
        <time>2020-05-18T14:33:15Z</time>
      </trkpt>
      <trkpt lat="43.23757" lon="0.08446">
        <ele>306</ele>
        <time>2020-05-18T14:33:27Z</time>
      </trkpt>
      <trkpt lat="43.23741" lon="0.08452">
        <ele>306</ele>
        <time>2020-05-18T14:33:40Z</time>
      </trkpt>
      <trkpt lat="43.23736" lon="0.08457">
        <ele>307</ele>
        <time>2020-05-18T14:33:45Z</time>
      </trkpt>
      <trkpt lat="43.23733" lon="0.08461">
        <ele>307</ele>
        <time>2020-05-18T14:33:49Z</time>
      </trkpt>
      <trkpt lat="43.23706" lon="0.08478">
        <ele>307</ele>
        <time>2020-05-18T14:34:09Z</time>
      </trkpt>
      <trkpt lat="43.237" lon="0.08479">
        <ele>307</ele>
        <time>2020-05-18T14:34:13Z</time>
      </trkpt>
      <trkpt lat="43.2369" lon="0.08487">
        <ele>307</ele>
        <time>2020-05-18T14:34:22Z</time>
      </trkpt>
      <trkpt lat="43.2366" lon="0.08524">
        <ele>308</ele>
        <time>2020-05-18T14:34:53Z</time>
      </trkpt>
      <trkpt lat="43.23644" lon="0.08546">
        <ele>308</ele>
        <time>2020-05-18T14:35:12Z</time>
      </trkpt>
      <trkpt lat="43.23632" lon="0.08561">
        <ele>308</ele>
        <time>2020-05-18T14:35:23Z</time>
      </trkpt>
      <trkpt lat="43.23629" lon="0.08567">
        <ele>308</ele>
        <time>2020-05-18T14:35:27Z</time>
      </trkpt>
      <trkpt lat="43.23599" lon="0.08602">
        <ele>309</ele>
        <time>2020-05-18T14:35:57Z</time>
      </trkpt>
      <trkpt lat="43.23594" lon="0.08605">
        <ele>309</ele>
        <time>2020-05-18T14:36:01Z</time>
      </trkpt>
      <trkpt lat="43.2359" lon="0.0861">
        <ele>309</ele>
        <time>2020-05-18T14:36:06Z</time>
      </trkpt>
      <trkpt lat="43.23578" lon="0.0862">
        <ele>309</ele>
        <time>2020-05-18T14:36:19Z</time>
      </trkpt>
      <trkpt lat="43.23572" lon="0.08632">
        <ele>309</ele>
        <time>2020-05-18T14:36:26Z</time>
      </trkpt>
      <trkpt lat="43.23561" lon="0.08641">
        <ele>309</ele>
        <time>2020-05-18T14:36:36Z</time>
      </trkpt>
      <trkpt lat="43.23544" lon="0.08664">
        <ele>310</ele>
        <time>2020-05-18T14:36:56Z</time>
      </trkpt>
      <trkpt lat="43.23539" lon="0.08669">
        <ele>310</ele>
        <time>2020-05-18T14:37:00Z</time>
      </trkpt>
      <trkpt lat="43.23535" lon="0.08671">
        <ele>310</ele>
        <time>2020-05-18T14:37:05Z</time>
      </trkpt>
      <trkpt lat="43.23518" lon="0.08693">
        <ele>310</ele>
        <time>2020-05-18T14:37:21Z</time>
      </trkpt>
      <trkpt lat="43.23508" lon="0.087">
        <ele>310</ele>
        <time>2020-05-18T14:37:29Z</time>
      </trkpt>
      <trkpt lat="43.23504" lon="0.08706">
        <ele>310</ele>
        <time>2020-05-18T14:37:34Z</time>
      </trkpt>
      <trkpt lat="43.23501" lon="0.08712">
        <ele>310</ele>
        <time>2020-05-18T14:37:38Z</time>
      </trkpt>
      <trkpt lat="43.23487" lon="0.08725">
        <ele>310</ele>
        <time>2020-05-18T14:37:51Z</time>
      </trkpt>
      <trkpt lat="43.23481" lon="0.08728">
        <ele>310</ele>
        <time>2020-05-18T14:37:56Z</time>
      </trkpt>
      <trkpt lat="43.23467" lon="0.08743">
        <ele>310</ele>
        <time>2020-05-18T14:38:08Z</time>
      </trkpt>
      <trkpt lat="43.23464" lon="0.0875">
        <ele>310</ele>
        <time>2020-05-18T14:38:12Z</time>
      </trkpt>
      <trkpt lat="43.23446" lon="0.08765">
        <ele>310</ele>
        <time>2020-05-18T14:38:31Z</time>
      </trkpt>
      <trkpt lat="43.23441" lon="0.08767">
        <ele>310</ele>
        <time>2020-05-18T14:38:35Z</time>
      </trkpt>
      <trkpt lat="43.23411" lon="0.08789">
        <ele>311</ele>
        <time>2020-05-18T14:39:06Z</time>
      </trkpt>
      <trkpt lat="43.23383" lon="0.08806">
        <ele>311</ele>
        <time>2020-05-18T14:39:28Z</time>
      </trkpt>
      <trkpt lat="43.23368" lon="0.08813">
        <ele>311</ele>
        <time>2020-05-18T14:39:38Z</time>
      </trkpt>
      <trkpt lat="43.23345" lon="0.08827">
        <ele>312</ele>
        <time>2020-05-18T14:39:56Z</time>
      </trkpt>
      <trkpt lat="43.23326" lon="0.08833">
        <ele>312</ele>
        <time>2020-05-18T14:40:11Z</time>
      </trkpt>
      <trkpt lat="43.23306" lon="0.08834">
        <ele>312</ele>
        <time>2020-05-18T14:40:28Z</time>
      </trkpt>
      <trkpt lat="43.233" lon="0.08836">
        <ele>312</ele>
        <time>2020-05-18T14:40:34Z</time>
      </trkpt>
      <trkpt lat="43.23294" lon="0.0884">
        <ele>312</ele>
        <time>2020-05-18T14:40:42Z</time>
      </trkpt>
      <trkpt lat="43.23286" lon="0.08842">
        <ele>312</ele>
        <time>2020-05-18T14:40:45Z</time>
      </trkpt>
      <trkpt lat="43.23277" lon="0.08843">
        <ele>312</ele>
        <time>2020-05-18T14:40:53Z</time>
      </trkpt>
      <trkpt lat="43.23262" lon="0.0885">
        <ele>313</ele>
        <time>2020-05-18T14:41:06Z</time>
      </trkpt>
      <trkpt lat="43.23259" lon="0.08855">
        <ele>313</ele>
        <time>2020-05-18T14:41:10Z</time>
      </trkpt>
      <trkpt lat="43.23253" lon="0.08858">
        <ele>313</ele>
        <time>2020-05-18T14:41:21Z</time>
      </trkpt>
      <trkpt lat="43.2324" lon="0.08868">
        <ele>313</ele>
        <time>2020-05-18T14:42:15Z</time>
      </trkpt>
      <trkpt lat="43.23233" lon="0.0887">
        <ele>313</ele>
        <time>2020-05-18T14:42:19Z</time>
      </trkpt>
      <trkpt lat="43.23229" lon="0.0887">
        <ele>313</ele>
        <time>2020-05-18T14:42:23Z</time>
      </trkpt>
      <trkpt lat="43.23224" lon="0.08869">
        <ele>313</ele>
        <time>2020-05-18T14:42:27Z</time>
      </trkpt>
      <trkpt lat="43.23219" lon="0.08871">
        <ele>313</ele>
        <time>2020-05-18T14:42:31Z</time>
      </trkpt>
      <trkpt lat="43.23215" lon="0.08877">
        <ele>313</ele>
        <time>2020-05-18T14:42:36Z</time>
      </trkpt>
      <trkpt lat="43.23214" lon="0.08885">
        <ele>313</ele>
        <time>2020-05-18T14:42:46Z</time>
      </trkpt>
      <trkpt lat="43.2321" lon="0.08895">
        <ele>313</ele>
        <time>2020-05-18T14:43:14Z</time>
      </trkpt>
      <trkpt lat="43.2321" lon="0.08901">
        <ele>313</ele>
        <time>2020-05-18T14:43:17Z</time>
      </trkpt>
      <trkpt lat="43.23204" lon="0.08914">
        <ele>313</ele>
        <time>2020-05-18T14:43:39Z</time>
      </trkpt>
      <trkpt lat="43.23205" lon="0.08904">
        <ele>313</ele>
        <time>2020-05-18T14:43:48Z</time>
      </trkpt>
      <trkpt lat="43.23199" lon="0.08898">
        <ele>313</ele>
        <time>2020-05-18T14:44:00Z</time>
      </trkpt>
      <trkpt lat="43.2319" lon="0.0889">
        <ele>313</ele>
        <time>2020-05-18T14:44:11Z</time>
      </trkpt>
      <trkpt lat="43.23182" lon="0.08892">
        <ele>313</ele>
        <time>2020-05-18T14:44:19Z</time>
      </trkpt>
      <trkpt lat="43.23176" lon="0.08892">
        <ele>313</ele>
        <time>2020-05-18T14:44:24Z</time>
      </trkpt>
      <trkpt lat="43.23156" lon="0.08895">
        <ele>313</ele>
        <time>2020-05-18T14:44:40Z</time>
      </trkpt>
      <trkpt lat="43.23134" lon="0.08897">
        <ele>313</ele>
        <time>2020-05-18T14:44:54Z</time>
      </trkpt>
      <trkpt lat="43.23102" lon="0.08907">
        <ele>313</ele>
        <time>2020-05-18T14:45:18Z</time>
      </trkpt>
      <trkpt lat="43.23091" lon="0.08913">
        <ele>313</ele>
        <time>2020-05-18T14:45:27Z</time>
      </trkpt>
      <trkpt lat="43.23052" lon="0.08923">
        <ele>313</ele>
        <time>2020-05-18T14:45:59Z</time>
      </trkpt>
      <trkpt lat="43.23034" lon="0.08931">
        <ele>313</ele>
        <time>2020-05-18T14:46:14Z</time>
      </trkpt>
      <trkpt lat="43.23029" lon="0.08936">
        <ele>313</ele>
        <time>2020-05-18T14:46:20Z</time>
      </trkpt>
      <trkpt lat="43.23022" lon="0.08939">
        <ele>313</ele>
        <time>2020-05-18T14:46:29Z</time>
      </trkpt>
      <trkpt lat="43.23002" lon="0.08954">
        <ele>313</ele>
        <time>2020-05-18T14:46:45Z</time>
      </trkpt>
      <trkpt lat="43.22964" lon="0.08989">
        <ele>314</ele>
        <time>2020-05-18T14:47:20Z</time>
      </trkpt>
      <trkpt lat="43.22926" lon="0.0902">
        <ele>315</ele>
        <time>2020-05-18T14:47:54Z</time>
      </trkpt>
      <trkpt lat="43.22883" lon="0.09038">
        <ele>315</ele>
        <time>2020-05-18T14:48:27Z</time>
      </trkpt>
      <trkpt lat="43.22872" lon="0.0904">
        <ele>315</ele>
        <time>2020-05-18T14:48:36Z</time>
      </trkpt>
      <trkpt lat="43.22861" lon="0.09044">
        <ele>315</ele>
        <time>2020-05-18T14:48:45Z</time>
      </trkpt>
      <trkpt lat="43.22855" lon="0.09045">
        <ele>316</ele>
        <time>2020-05-18T14:48:50Z</time>
      </trkpt>
      <trkpt lat="43.2284" lon="0.09052">
        <ele>316</ele>
        <time>2020-05-18T14:49:03Z</time>
      </trkpt>
      <trkpt lat="43.22836" lon="0.09056">
        <ele>316</ele>
        <time>2020-05-18T14:49:17Z</time>
      </trkpt>
      <trkpt lat="43.22828" lon="0.09055">
        <ele>316</ele>
        <time>2020-05-18T14:50:04Z</time>
      </trkpt>
      <trkpt lat="43.22816" lon="0.0906">
        <ele>316</ele>
        <time>2020-05-18T14:50:14Z</time>
      </trkpt>
      <trkpt lat="43.2281" lon="0.0906">
        <ele>316</ele>
        <time>2020-05-18T14:50:19Z</time>
      </trkpt>
      <trkpt lat="43.22805" lon="0.09063">
        <ele>316</ele>
        <time>2020-05-18T14:50:23Z</time>
      </trkpt>
      <trkpt lat="43.22795" lon="0.09069">
        <ele>316</ele>
        <time>2020-05-18T14:50:31Z</time>
      </trkpt>
      <trkpt lat="43.22758" lon="0.09081">
        <ele>316</ele>
        <time>2020-05-18T14:51:03Z</time>
      </trkpt>
      <trkpt lat="43.22746" lon="0.09085">
        <ele>317</ele>
        <time>2020-05-18T14:51:13Z</time>
      </trkpt>
      <trkpt lat="43.2274" lon="0.09089">
        <ele>317</ele>
        <time>2020-05-18T14:51:21Z</time>
      </trkpt>
      <trkpt lat="43.22723" lon="0.09097">
        <ele>317</ele>
        <time>2020-05-18T14:51:34Z</time>
      </trkpt>
      <trkpt lat="43.22712" lon="0.09107">
        <ele>318</ele>
        <time>2020-05-18T14:51:43Z</time>
      </trkpt>
      <trkpt lat="43.22675" lon="0.09125">
        <ele>319</ele>
        <time>2020-05-18T14:52:14Z</time>
      </trkpt>
      <trkpt lat="43.22669" lon="0.09126">
        <ele>319</ele>
        <time>2020-05-18T14:52:18Z</time>
      </trkpt>
      <trkpt lat="43.2266" lon="0.09132">
        <ele>320</ele>
        <time>2020-05-18T14:52:27Z</time>
      </trkpt>
      <trkpt lat="43.22649" lon="0.09135">
        <ele>320</ele>
        <time>2020-05-18T14:52:35Z</time>
      </trkpt>
      <trkpt lat="43.22623" lon="0.09152">
        <ele>320</ele>
        <time>2020-05-18T14:52:57Z</time>
      </trkpt>
      <trkpt lat="43.22607" lon="0.09158">
        <ele>320</ele>
        <time>2020-05-18T14:53:10Z</time>
      </trkpt>
      <trkpt lat="43.22601" lon="0.09158">
        <ele>320</ele>
        <time>2020-05-18T14:53:15Z</time>
      </trkpt>
      <trkpt lat="43.22596" lon="0.0916">
        <ele>320</ele>
        <time>2020-05-18T14:53:20Z</time>
      </trkpt>
      <trkpt lat="43.22591" lon="0.09162">
        <ele>320</ele>
        <time>2020-05-18T14:53:24Z</time>
      </trkpt>
      <trkpt lat="43.22586" lon="0.09166">
        <ele>320</ele>
        <time>2020-05-18T14:53:28Z</time>
      </trkpt>
      <trkpt lat="43.22581" lon="0.09168">
        <ele>320</ele>
        <time>2020-05-18T14:53:32Z</time>
      </trkpt>
      <trkpt lat="43.22576" lon="0.09169">
        <ele>320</ele>
        <time>2020-05-18T14:53:36Z</time>
      </trkpt>
      <trkpt lat="43.22531" lon="0.09188">
        <ele>319</ele>
        <time>2020-05-18T14:54:10Z</time>
      </trkpt>
      <trkpt lat="43.22494" lon="0.09197">
        <ele>318</ele>
        <time>2020-05-18T14:54:41Z</time>
      </trkpt>
      <trkpt lat="43.22452" lon="0.09205">
        <ele>318</ele>
        <time>2020-05-18T14:55:13Z</time>
      </trkpt>
      <trkpt lat="43.22428" lon="0.09211">
        <ele>319</ele>
        <time>2020-05-18T14:55:33Z</time>
      </trkpt>
      <trkpt lat="43.22423" lon="0.09215">
        <ele>319</ele>
        <time>2020-05-18T14:55:38Z</time>
      </trkpt>
      <trkpt lat="43.2242" lon="0.0922">
        <ele>319</ele>
        <time>2020-05-18T14:55:42Z</time>
      </trkpt>
      <trkpt lat="43.22417" lon="0.09227">
        <ele>319</ele>
        <time>2020-05-18T14:55:46Z</time>
      </trkpt>
      <trkpt lat="43.22414" lon="0.09231">
        <ele>319</ele>
        <time>2020-05-18T14:55:50Z</time>
      </trkpt>
      <trkpt lat="43.22403" lon="0.09238">
        <ele>319</ele>
        <time>2020-05-18T14:55:59Z</time>
      </trkpt>
      <trkpt lat="43.22383" lon="0.09247">
        <ele>320</ele>
        <time>2020-05-18T14:56:14Z</time>
      </trkpt>
      <trkpt lat="43.22378" lon="0.09251">
        <ele>320</ele>
        <time>2020-05-18T14:56:20Z</time>
      </trkpt>
      <trkpt lat="43.22369" lon="0.09261">
        <ele>320</ele>
        <time>2020-05-18T14:56:30Z</time>
      </trkpt>
      <trkpt lat="43.22365" lon="0.09264">
        <ele>320</ele>
        <time>2020-05-18T14:56:34Z</time>
      </trkpt>
      <trkpt lat="43.22361" lon="0.0927">
        <ele>321</ele>
        <time>2020-05-18T14:56:38Z</time>
      </trkpt>
      <trkpt lat="43.22357" lon="0.09274">
        <ele>321</ele>
        <time>2020-05-18T14:56:43Z</time>
      </trkpt>
      <trkpt lat="43.22353" lon="0.09271">
        <ele>321</ele>
        <time>2020-05-18T14:56:46Z</time>
      </trkpt>
      <trkpt lat="43.2235" lon="0.09266">
        <ele>321</ele>
        <time>2020-05-18T14:56:49Z</time>
      </trkpt>
      <trkpt lat="43.22345" lon="0.09258">
        <ele>321</ele>
        <time>2020-05-18T14:57:05Z</time>
      </trkpt>
      <trkpt lat="43.22341" lon="0.09254">
        <ele>321</ele>
        <time>2020-05-18T14:57:08Z</time>
      </trkpt>
      <trkpt lat="43.22325" lon="0.09214">
        <ele>320</ele>
        <time>2020-05-18T14:57:34Z</time>
      </trkpt>
      <trkpt lat="43.22322" lon="0.09209">
        <ele>320</ele>
        <time>2020-05-18T14:57:37Z</time>
      </trkpt>
      <trkpt lat="43.2232" lon="0.09203">
        <ele>320</ele>
        <time>2020-05-18T14:57:41Z</time>
      </trkpt>
      <trkpt lat="43.2232" lon="0.09196">
        <ele>320</ele>
        <time>2020-05-18T14:57:43Z</time>
      </trkpt>
      <trkpt lat="43.22318" lon="0.0919">
        <ele>320</ele>
        <time>2020-05-18T14:57:47Z</time>
      </trkpt>
      <trkpt lat="43.22321" lon="0.09184">
        <ele>320</ele>
        <time>2020-05-18T14:57:51Z</time>
      </trkpt>
      <trkpt lat="43.22336" lon="0.09179">
        <ele>320</ele>
        <time>2020-05-18T14:58:03Z</time>
      </trkpt>
      <trkpt lat="43.2234" lon="0.09174">
        <ele>320</ele>
        <time>2020-05-18T14:58:07Z</time>
      </trkpt>
      <trkpt lat="43.22344" lon="0.0917">
        <ele>319</ele>
        <time>2020-05-18T14:58:12Z</time>
      </trkpt>
      <trkpt lat="43.22349" lon="0.09167">
        <ele>319</ele>
        <time>2020-05-18T14:58:16Z</time>
      </trkpt>
      <trkpt lat="43.22369" lon="0.09159">
        <ele>319</ele>
        <time>2020-05-18T14:58:33Z</time>
      </trkpt>
      <trkpt lat="43.22374" lon="0.09159">
        <ele>319</ele>
        <time>2020-05-18T14:58:36Z</time>
      </trkpt>
      <trkpt lat="43.22391" lon="0.09159">
        <ele>317</ele>
        <time>2020-05-18T14:58:48Z</time>
      </trkpt>
      <trkpt lat="43.22396" lon="0.0916">
        <ele>317</ele>
        <time>2020-05-18T14:58:51Z</time>
      </trkpt>
      <trkpt lat="43.22401" lon="0.09162">
        <ele>317</ele>
        <time>2020-05-18T14:58:55Z</time>
      </trkpt>
      <trkpt lat="43.22406" lon="0.09163">
        <ele>317</ele>
        <time>2020-05-18T14:58:59Z</time>
      </trkpt>
      <trkpt lat="43.22412" lon="0.09161">
        <ele>317</ele>
        <time>2020-05-18T14:59:03Z</time>
      </trkpt>
      <trkpt lat="43.22417" lon="0.09159">
        <ele>317</ele>
        <time>2020-05-18T14:59:07Z</time>
      </trkpt>
      <trkpt lat="43.22422" lon="0.09155">
        <ele>317</ele>
        <time>2020-05-18T14:59:11Z</time>
      </trkpt>
      <trkpt lat="43.22432" lon="0.09152">
        <ele>317</ele>
        <time>2020-05-18T14:59:20Z</time>
      </trkpt>
      <trkpt lat="43.22446" lon="0.09148">
        <ele>317</ele>
        <time>2020-05-18T14:59:30Z</time>
      </trkpt>
      <trkpt lat="43.2246" lon="0.0914">
        <ele>317</ele>
        <time>2020-05-18T14:59:41Z</time>
      </trkpt>
      <trkpt lat="43.22475" lon="0.09135">
        <ele>317</ele>
        <time>2020-05-18T14:59:55Z</time>
      </trkpt>
      <trkpt lat="43.22485" lon="0.09128">
        <ele>317</ele>
        <time>2020-05-18T15:00:03Z</time>
      </trkpt>
      <trkpt lat="43.22489" lon="0.09128">
        <ele>317</ele>
        <time>2020-05-18T15:00:08Z</time>
      </trkpt>
      <trkpt lat="43.22493" lon="0.09132">
        <ele>317</ele>
        <time>2020-05-18T15:00:21Z</time>
      </trkpt>
      <trkpt lat="43.22498" lon="0.09128">
        <ele>317</ele>
        <time>2020-05-18T15:00:26Z</time>
      </trkpt>
      <trkpt lat="43.22513" lon="0.09118">
        <ele>317</ele>
        <time>2020-05-18T15:00:39Z</time>
      </trkpt>
      <trkpt lat="43.22518" lon="0.09117">
        <ele>317</ele>
        <time>2020-05-18T15:00:42Z</time>
      </trkpt>
      <trkpt lat="43.22533" lon="0.09111">
        <ele>317</ele>
        <time>2020-05-18T15:00:54Z</time>
      </trkpt>
      <trkpt lat="43.22538" lon="0.09109">
        <ele>317</ele>
        <time>2020-05-18T15:00:59Z</time>
      </trkpt>
      <trkpt lat="43.22543" lon="0.09105">
        <ele>317</ele>
        <time>2020-05-18T15:01:03Z</time>
      </trkpt>
      <trkpt lat="43.22554" lon="0.09105">
        <ele>317</ele>
        <time>2020-05-18T15:01:10Z</time>
      </trkpt>
      <trkpt lat="43.22576" lon="0.09092">
        <ele>317</ele>
        <time>2020-05-18T15:01:27Z</time>
      </trkpt>
      <trkpt lat="43.2258" lon="0.09089">
        <ele>317</ele>
        <time>2020-05-18T15:01:30Z</time>
      </trkpt>
      <trkpt lat="43.22585" lon="0.09087">
        <ele>317</ele>
        <time>2020-05-18T15:01:34Z</time>
      </trkpt>
      <trkpt lat="43.2259" lon="0.09087">
        <ele>317</ele>
        <time>2020-05-18T15:01:38Z</time>
      </trkpt>
      <trkpt lat="43.22611" lon="0.09079">
        <ele>316</ele>
        <time>2020-05-18T15:01:57Z</time>
      </trkpt>
      <trkpt lat="43.22616" lon="0.09079">
        <ele>316</ele>
        <time>2020-05-18T15:02:01Z</time>
      </trkpt>
      <trkpt lat="43.22625" lon="0.09071">
        <ele>316</ele>
        <time>2020-05-18T15:02:10Z</time>
      </trkpt>
      <trkpt lat="43.22629" lon="0.09065">
        <ele>316</ele>
        <time>2020-05-18T15:02:13Z</time>
      </trkpt>
      <trkpt lat="43.22651" lon="0.09061">
        <ele>316</ele>
        <time>2020-05-18T15:02:30Z</time>
      </trkpt>
      <trkpt lat="43.22677" lon="0.09045">
        <ele>315</ele>
        <time>2020-05-18T15:02:51Z</time>
      </trkpt>
      <trkpt lat="43.22682" lon="0.09041">
        <ele>315</ele>
        <time>2020-05-18T15:02:55Z</time>
      </trkpt>
      <trkpt lat="43.22693" lon="0.09037">
        <ele>315</ele>
        <time>2020-05-18T15:03:03Z</time>
      </trkpt>
      <trkpt lat="43.22709" lon="0.09038">
        <ele>315</ele>
        <time>2020-05-18T15:03:15Z</time>
      </trkpt>
      <trkpt lat="43.22715" lon="0.09032">
        <ele>315</ele>
        <time>2020-05-18T15:03:23Z</time>
      </trkpt>
      <trkpt lat="43.2272" lon="0.0903">
        <ele>315</ele>
        <time>2020-05-18T15:03:26Z</time>
      </trkpt>
      <trkpt lat="43.22729" lon="0.0903">
        <ele>315</ele>
        <time>2020-05-18T15:03:32Z</time>
      </trkpt>
      <trkpt lat="43.22734" lon="0.09028">
        <ele>315</ele>
        <time>2020-05-18T15:03:36Z</time>
      </trkpt>
      <trkpt lat="43.22746" lon="0.09015">
        <ele>315</ele>
        <time>2020-05-18T15:03:48Z</time>
      </trkpt>
      <trkpt lat="43.22783" lon="0.09006">
        <ele>314</ele>
        <time>2020-05-18T15:04:16Z</time>
      </trkpt>
      <trkpt lat="43.22796" lon="0.09006">
        <ele>314</ele>
        <time>2020-05-18T15:04:27Z</time>
      </trkpt>
      <trkpt lat="43.2281" lon="0.08997">
        <ele>314</ele>
        <time>2020-05-18T15:04:37Z</time>
      </trkpt>
      <trkpt lat="43.22842" lon="0.08989">
        <ele>314</ele>
        <time>2020-05-18T15:05:02Z</time>
      </trkpt>
      <trkpt lat="43.22846" lon="0.08986">
        <ele>314</ele>
        <time>2020-05-18T15:05:06Z</time>
      </trkpt>
      <trkpt lat="43.22867" lon="0.08985">
        <ele>314</ele>
        <time>2020-05-18T15:05:22Z</time>
      </trkpt>
      <trkpt lat="43.22876" lon="0.0898">
        <ele>314</ele>
        <time>2020-05-18T15:05:30Z</time>
      </trkpt>
      <trkpt lat="43.22883" lon="0.08974">
        <ele>314</ele>
        <time>2020-05-18T15:05:38Z</time>
      </trkpt>
      <trkpt lat="43.22909" lon="0.08964">
        <ele>314</ele>
        <time>2020-05-18T15:05:59Z</time>
      </trkpt>
      <trkpt lat="43.22914" lon="0.0896">
        <ele>314</ele>
        <time>2020-05-18T15:06:03Z</time>
      </trkpt>
      <trkpt lat="43.22926" lon="0.08943">
        <ele>313</ele>
        <time>2020-05-18T15:06:18Z</time>
      </trkpt>
      <trkpt lat="43.22957" lon="0.08924">
        <ele>313</ele>
        <time>2020-05-18T15:06:42Z</time>
      </trkpt>
      <trkpt lat="43.22965" lon="0.08915">
        <ele>313</ele>
        <time>2020-05-18T15:06:49Z</time>
      </trkpt>
      <trkpt lat="43.2297" lon="0.08913">
        <ele>313</ele>
        <time>2020-05-18T15:06:53Z</time>
      </trkpt>
      <trkpt lat="43.22989" lon="0.08895">
        <ele>313</ele>
        <time>2020-05-18T15:07:11Z</time>
      </trkpt>
      <trkpt lat="43.22993" lon="0.08889">
        <ele>313</ele>
        <time>2020-05-18T15:07:15Z</time>
      </trkpt>
      <trkpt lat="43.22997" lon="0.08886">
        <ele>313</ele>
        <time>2020-05-18T15:07:19Z</time>
      </trkpt>
      <trkpt lat="43.23001" lon="0.08884">
        <ele>313</ele>
        <time>2020-05-18T15:07:22Z</time>
      </trkpt>
      <trkpt lat="43.23013" lon="0.08885">
        <ele>313</ele>
        <time>2020-05-18T15:07:30Z</time>
      </trkpt>
      <trkpt lat="43.23019" lon="0.08883">
        <ele>313</ele>
        <time>2020-05-18T15:07:36Z</time>
      </trkpt>
      <trkpt lat="43.23044" lon="0.08871">
        <ele>313</ele>
        <time>2020-05-18T15:07:56Z</time>
      </trkpt>
      <trkpt lat="43.23053" lon="0.08869">
        <ele>313</ele>
        <time>2020-05-18T15:08:04Z</time>
      </trkpt>
      <trkpt lat="43.23075" lon="0.08855">
        <ele>313</ele>
        <time>2020-05-18T15:08:20Z</time>
      </trkpt>
      <trkpt lat="43.23096" lon="0.08849">
        <ele>313</ele>
        <time>2020-05-18T15:08:43Z</time>
      </trkpt>
      <trkpt lat="43.23101" lon="0.0885">
        <ele>312</ele>
        <time>2020-05-18T15:08:49Z</time>
      </trkpt>
      <trkpt lat="43.23109" lon="0.08847">
        <ele>312</ele>
        <time>2020-05-18T15:09:39Z</time>
      </trkpt>
      <trkpt lat="43.23126" lon="0.08843">
        <ele>312</ele>
        <time>2020-05-18T15:09:51Z</time>
      </trkpt>
      <trkpt lat="43.23132" lon="0.08838">
        <ele>312</ele>
        <time>2020-05-18T15:09:57Z</time>
      </trkpt>
      <trkpt lat="43.23151" lon="0.08829">
        <ele>312</ele>
        <time>2020-05-18T15:10:12Z</time>
      </trkpt>
      <trkpt lat="43.23162" lon="0.08829">
        <ele>312</ele>
        <time>2020-05-18T15:10:21Z</time>
      </trkpt>
      <trkpt lat="43.23167" lon="0.08827">
        <ele>312</ele>
        <time>2020-05-18T15:10:24Z</time>
      </trkpt>
      <trkpt lat="43.23171" lon="0.08829">
        <ele>312</ele>
        <time>2020-05-18T15:10:28Z</time>
      </trkpt>
      <trkpt lat="43.23177" lon="0.08827">
        <ele>312</ele>
        <time>2020-05-18T15:10:32Z</time>
      </trkpt>
      <trkpt lat="43.23192" lon="0.0882">
        <ele>312</ele>
        <time>2020-05-18T15:10:45Z</time>
      </trkpt>
      <trkpt lat="43.23201" lon="0.08818">
        <ele>312</ele>
        <time>2020-05-18T15:10:51Z</time>
      </trkpt>
      <trkpt lat="43.23211" lon="0.08816">
        <ele>312</ele>
        <time>2020-05-18T15:10:59Z</time>
      </trkpt>
      <trkpt lat="43.23215" lon="0.08814">
        <ele>312</ele>
        <time>2020-05-18T15:11:03Z</time>
      </trkpt>
      <trkpt lat="43.23217" lon="0.08808">
        <ele>312</ele>
        <time>2020-05-18T15:11:06Z</time>
      </trkpt>
      <trkpt lat="43.23216" lon="0.08802">
        <ele>312</ele>
        <time>2020-05-18T15:11:23Z</time>
      </trkpt>
      <trkpt lat="43.23218" lon="0.08795">
        <ele>312</ele>
        <time>2020-05-18T15:11:27Z</time>
      </trkpt>
      <trkpt lat="43.23239" lon="0.0877">
        <ele>312</ele>
        <time>2020-05-18T15:11:47Z</time>
      </trkpt>
      <trkpt lat="43.2325" lon="0.0877">
        <ele>312</ele>
        <time>2020-05-18T15:11:57Z</time>
      </trkpt>
      <trkpt lat="43.23255" lon="0.08766">
        <ele>312</ele>
        <time>2020-05-18T15:12:02Z</time>
      </trkpt>
      <trkpt lat="43.2326" lon="0.08765">
        <ele>312</ele>
        <time>2020-05-18T15:12:07Z</time>
      </trkpt>
      <trkpt lat="43.23267" lon="0.08763">
        <ele>312</ele>
        <time>2020-05-18T15:12:23Z</time>
      </trkpt>
      <trkpt lat="43.23268" lon="0.08756">
        <ele>314</ele>
        <time>2020-05-18T15:12:46Z</time>
      </trkpt>
      <trkpt lat="43.2327" lon="0.08745">
        <ele>313</ele>
        <time>2020-05-18T15:12:54Z</time>
      </trkpt>
      <trkpt lat="43.23267" lon="0.08741">
        <ele>313</ele>
        <time>2020-05-18T15:13:02Z</time>
      </trkpt>
      <trkpt lat="43.23246" lon="0.08745">
        <ele>315</ele>
        <time>2020-05-18T15:13:24Z</time>
      </trkpt>
      <trkpt lat="43.23241" lon="0.08743">
        <ele>315</ele>
        <time>2020-05-18T15:13:28Z</time>
      </trkpt>
      <trkpt lat="43.23229" lon="0.08747">
        <ele>316</ele>
        <time>2020-05-18T15:13:36Z</time>
      </trkpt>
      <trkpt lat="43.23227" lon="0.08753">
        <ele>316</ele>
        <time>2020-05-18T15:13:40Z</time>
      </trkpt>
      <trkpt lat="43.23223" lon="0.08746">
        <ele>316</ele>
        <time>2020-05-18T15:13:47Z</time>
      </trkpt>
      <trkpt lat="43.23217" lon="0.08741">
        <ele>316</ele>
        <time>2020-05-18T15:13:55Z</time>
      </trkpt>
      <trkpt lat="43.23212" lon="0.08736">
        <ele>316</ele>
        <time>2020-05-18T15:14:00Z</time>
      </trkpt>
      <trkpt lat="43.23206" lon="0.08721">
        <ele>316</ele>
        <time>2020-05-18T15:14:08Z</time>
      </trkpt>
      <trkpt lat="43.23195" lon="0.08667">
        <ele>314</ele>
        <time>2020-05-18T15:14:43Z</time>
      </trkpt>
      <trkpt lat="43.2319" lon="0.08652">
        <ele>314</ele>
        <time>2020-05-18T15:14:53Z</time>
      </trkpt>
      <trkpt lat="43.23185" lon="0.08647">
        <ele>314</ele>
        <time>2020-05-18T15:15:19Z</time>
      </trkpt>
      <trkpt lat="43.23185" lon="0.0864">
        <ele>315</ele>
        <time>2020-05-18T15:15:49Z</time>
      </trkpt>
      <trkpt lat="43.23181" lon="0.0863">
        <ele>315</ele>
        <time>2020-05-18T15:16:25Z</time>
      </trkpt>
      <trkpt lat="43.23174" lon="0.08607">
        <ele>315</ele>
        <time>2020-05-18T15:16:41Z</time>
      </trkpt>
      <trkpt lat="43.23176" lon="0.08592">
        <ele>315</ele>
        <time>2020-05-18T15:16:48Z</time>
      </trkpt>
      <trkpt lat="43.23174" lon="0.08585">
        <ele>315</ele>
        <time>2020-05-18T15:16:53Z</time>
      </trkpt>
      <trkpt lat="43.23172" lon="0.08577">
        <ele>314</ele>
        <time>2020-05-18T15:16:58Z</time>
      </trkpt>
      <trkpt lat="43.23167" lon="0.08572">
        <ele>314</ele>
        <time>2020-05-18T15:17:03Z</time>
      </trkpt>
      <trkpt lat="43.23161" lon="0.08568">
        <ele>314</ele>
        <time>2020-05-18T15:17:11Z</time>
      </trkpt>
      <trkpt lat="43.23156" lon="0.08562">
        <ele>314</ele>
        <time>2020-05-18T15:17:19Z</time>
      </trkpt>
      <trkpt lat="43.23154" lon="0.08552">
        <ele>315</ele>
        <time>2020-05-18T15:17:23Z</time>
      </trkpt>
      <trkpt lat="43.23157" lon="0.08524">
        <ele>314</ele>
        <time>2020-05-18T15:17:33Z</time>
      </trkpt>
      <trkpt lat="43.23155" lon="0.085">
        <ele>314</ele>
        <time>2020-05-18T15:17:43Z</time>
      </trkpt>
      <trkpt lat="43.23157" lon="0.08483">
        <ele>314</ele>
        <time>2020-05-18T15:17:51Z</time>
      </trkpt>
      <trkpt lat="43.23157" lon="0.08468">
        <ele>314</ele>
        <time>2020-05-18T15:17:59Z</time>
      </trkpt>
      <trkpt lat="43.23156" lon="0.0846">
        <ele>313</ele>
        <time>2020-05-18T15:18:04Z</time>
      </trkpt>
      <trkpt lat="43.23154" lon="0.08452">
        <ele>314</ele>
        <time>2020-05-18T15:18:09Z</time>
      </trkpt>
      <trkpt lat="43.23155" lon="0.08436">
        <ele>314</ele>
        <time>2020-05-18T15:18:17Z</time>
      </trkpt>
      <trkpt lat="43.23154" lon="0.08426">
        <ele>314</ele>
        <time>2020-05-18T15:18:22Z</time>
      </trkpt>
      <trkpt lat="43.23157" lon="0.08403">
        <ele>314</ele>
        <time>2020-05-18T15:18:38Z</time>
      </trkpt>
      <trkpt lat="43.23164" lon="0.08381">
        <ele>314</ele>
        <time>2020-05-18T15:18:52Z</time>
      </trkpt>
      <trkpt lat="43.23167" lon="0.08356">
        <ele>314</ele>
        <time>2020-05-18T15:19:04Z</time>
      </trkpt>
      <trkpt lat="43.23174" lon="0.08332">
        <ele>314</ele>
        <time>2020-05-18T15:19:20Z</time>
      </trkpt>
      <trkpt lat="43.23172" lon="0.08317">
        <ele>314</ele>
        <time>2020-05-18T15:19:30Z</time>
      </trkpt>
      <trkpt lat="43.23177" lon="0.08304">
        <ele>314</ele>
        <time>2020-05-18T15:19:39Z</time>
      </trkpt>
      <trkpt lat="43.23176" lon="0.08296">
        <ele>314</ele>
        <time>2020-05-18T15:19:45Z</time>
      </trkpt>
      <trkpt lat="43.23182" lon="0.0826">
        <ele>314</ele>
        <time>2020-05-18T15:20:05Z</time>
      </trkpt>
      <trkpt lat="43.23185" lon="0.08253">
        <ele>314</ele>
        <time>2020-05-18T15:20:09Z</time>
      </trkpt>
      <trkpt lat="43.23208" lon="0.0822">
        <ele>314</ele>
        <time>2020-05-18T15:20:33Z</time>
      </trkpt>
      <trkpt lat="43.23211" lon="0.08211">
        <ele>314</ele>
        <time>2020-05-18T15:20:38Z</time>
      </trkpt>
      <trkpt lat="43.23221" lon="0.08197">
        <ele>314</ele>
        <time>2020-05-18T15:20:49Z</time>
      </trkpt>
      <trkpt lat="43.23227" lon="0.08179">
        <ele>313</ele>
        <time>2020-05-18T15:21:00Z</time>
      </trkpt>
      <trkpt lat="43.23231" lon="0.08174">
        <ele>313</ele>
        <time>2020-05-18T15:21:04Z</time>
      </trkpt>
      <trkpt lat="43.23238" lon="0.08175">
        <ele>313</ele>
        <time>2020-05-18T15:21:09Z</time>
      </trkpt>
      <trkpt lat="43.23255" lon="0.0818">
        <ele>313</ele>
        <time>2020-05-18T15:21:22Z</time>
      </trkpt>
      <trkpt lat="43.23264" lon="0.08187">
        <ele>313</ele>
        <time>2020-05-18T15:21:30Z</time>
      </trkpt>
      <trkpt lat="43.2327" lon="0.08192">
        <ele>313</ele>
        <time>2020-05-18T15:21:35Z</time>
      </trkpt>
      <trkpt lat="43.23276" lon="0.08194">
        <ele>313</ele>
        <time>2020-05-18T15:21:40Z</time>
      </trkpt>
      <trkpt lat="43.23291" lon="0.08203">
        <ele>313</ele>
        <time>2020-05-18T15:21:52Z</time>
      </trkpt>
      <trkpt lat="43.23297" lon="0.08203">
        <ele>313</ele>
        <time>2020-05-18T15:21:56Z</time>
      </trkpt>
      <trkpt lat="43.23304" lon="0.08208">
        <ele>313</ele>
        <time>2020-05-18T15:22:03Z</time>
      </trkpt>
      <trkpt lat="43.23313" lon="0.08212">
        <ele>313</ele>
        <time>2020-05-18T15:22:11Z</time>
      </trkpt>
      <trkpt lat="43.23318" lon="0.0821">
        <ele>313</ele>
        <time>2020-05-18T15:22:17Z</time>
      </trkpt>
      <trkpt lat="43.23321" lon="0.08204">
        <ele>313</ele>
        <time>2020-05-18T15:22:20Z</time>
      </trkpt>
      <trkpt lat="43.23326" lon="0.08198">
        <ele>313</ele>
        <time>2020-05-18T15:22:29Z</time>
      </trkpt>
      <trkpt lat="43.23336" lon="0.08208">
        <ele>313</ele>
        <time>2020-05-18T15:22:40Z</time>
      </trkpt>
      <trkpt lat="43.23368" lon="0.08227">
        <ele>312</ele>
        <time>2020-05-18T15:23:07Z</time>
      </trkpt>
      <trkpt lat="43.23376" lon="0.08229">
        <ele>312</ele>
        <time>2020-05-18T15:23:12Z</time>
      </trkpt>
      <trkpt lat="43.23383" lon="0.08227">
        <ele>312</ele>
        <time>2020-05-18T15:23:18Z</time>
      </trkpt>
      <trkpt lat="43.23397" lon="0.08208">
        <ele>313</ele>
        <time>2020-05-18T15:23:23Z</time>
      </trkpt>
      <trkpt lat="43.234" lon="0.08193">
        <ele>312</ele>
        <time>2020-05-18T15:23:29Z</time>
      </trkpt>
      <trkpt lat="43.23403" lon="0.08187">
        <ele>312</ele>
        <time>2020-05-18T15:23:35Z</time>
      </trkpt>
      <trkpt lat="43.23404" lon="0.08179">
        <ele>312</ele>
        <time>2020-05-18T15:23:40Z</time>
      </trkpt>
      <trkpt lat="43.23408" lon="0.08171">
        <ele>312</ele>
        <time>2020-05-18T15:24:30Z</time>
      </trkpt>
    </trkseg>
  </trk>
</gpx>